Another Hard Day at the Office Weather Stats

 
 
 

High monthly outside Temperature, 22.8 , C
Low monthly outside Temperature, -1.0 , C
High yearly outside Temperature, 30.9 , C
Low yearly outside Temperature, -2.2 , C

Low monthly barometer, 1001.1 , mb
High monthly barometer, 1028.0 , mb
Low yearly barometer, 975.0 , mb
High yearly barometer 1041.1 , mb

High wind speed, 25.0 , mph
Time of High wind speed, 21:37 , mph
High monthly wind speed, 47.0 , mph
High yearly wind speed, 55.0 , mph

 

 




3126
                    Temp     Hi    Low   Out    Dew  Wind  Wind   Wind    Hi    Hi   Wind   Heat    THW                Rain    Heat    Cool    In     In    In     In     In   In Air  Wind  Wind    ISS   Arc.
  Date    Time     Out   Temp   Temp   Hum    Pt. Speed   Dir    Run Speed   Dir  Chill  Index  Index   Bar    Rain  Rate    D-D     D-D    Temp   Hum    Dew   Heat    EMC Density  Samp   Tx   Recept  Int.
---------------------------------------------------------------------------------------------------------------------------------------------------------------------------------------------------------------
21/07/16   0:05   17.6   17.7   17.6    88   15.5   8.0    NW   0.67  13.0   WNW   17.1   17.9   17.5  1013.1  0.00  0.00   0.003   0.000   30.1    48   17.8   31.1   8.73  .0712    113    1     99.1    5 
21/07/16   0:10   17.4   17.5   17.4    87   15.2   6.0    NW   0.50  11.0    NW   17.4   17.7   17.7  1013.2  0.00  0.00   0.003   0.000   29.9    47   17.4   30.8   8.53  .0713    116    1    100.0    5 
21/07/16   0:15   17.3   17.4   17.3    87   15.1   6.0    NW   0.50  14.0    NW   17.3   17.6   17.6  1013.3  0.00  0.00   0.004   0.000   29.8    47   17.3   30.6   8.54  .0714    117    1    100.0    5 
21/07/16   0:20   17.2   17.3   17.2    86   14.8   6.0    NW   0.50  12.0   WNW   17.2   17.4   17.4  1013.2  0.00  0.00   0.004   0.000   29.7    46   16.8   30.3   8.44  .0714    117    1    100.0    5 
21/07/16   0:25   17.1   17.2   17.1    85   14.5   6.0    NW   0.50  12.0    NW   17.1   17.3   17.3  1013.2  0.00  0.00   0.004   0.000   29.6    46   16.7   30.2   8.45  .0715    116    1    100.0    5 
21/07/16   0:30   17.0   17.1   17.0    85   14.5   5.0   WNW   0.42  11.0   WNW   17.0   17.2   17.2  1013.3  0.00  0.00   0.005   0.000   29.4    46   16.6   30.1   8.45  .0715    117    1    100.0    5 
21/07/16   0:35   16.9   17.0   16.9    85   14.4   4.0    NW   0.33   7.0    NW   16.9   17.2   17.2  1013.3  0.00  0.00   0.005   0.000   29.4    47   16.9   30.1   8.55  .0715    117    1    100.0    5 
21/07/16   0:40   16.8   16.9   16.8    84   14.1   5.0    NW   0.42   8.0    NW   16.8   17.0   17.0  1013.3  0.00  0.00   0.005   0.000   29.3    46   16.5   29.9   8.45  .0716    117    1    100.0    5 
21/07/16   0:45   16.8   16.8   16.8    84   14.1   4.0    NW   0.33   8.0   NNW   16.8   17.0   17.0  1013.3  0.00  0.00   0.005   0.000   29.2    46   16.4   29.9   8.45  .0716    117    1    100.0    5 
21/07/16   0:50   16.8   16.8   16.8    84   14.1   4.0    NW   0.33   7.0   NNW   16.8   16.9   16.9  1013.3  0.00  0.00   0.005   0.000   29.1    47   16.6   29.9   8.56  .0716    116    1    100.0    5 
21/07/16   0:55   16.7   16.7   16.7    84   13.9   4.0    NW   0.33   7.0    NW   16.7   16.8   16.8  1013.3  0.00  0.00   0.006   0.000   29.1    47   16.6   29.8   8.56  .0716    116    1    100.0    5 
21/07/16   1:00   16.7   16.7   16.6    83   13.8   4.0    NW   0.33   8.0    NW   16.7   16.8   16.8  1013.4  0.00  0.00   0.006   0.000   29.0    47   16.5   29.8   8.57  .0716    117    1    100.0    5 
21/07/16   1:05   16.6   16.6   16.6    83   13.7   2.0    NW   0.17   5.0    NW   16.6   16.7   16.7  1013.3  0.00  0.00   0.006   0.000   28.9    47   16.5   29.7   8.57  .0716    116    1    100.0    5 
21/07/16   1:10   16.5   16.6   16.5    83   13.6   3.0   WNW   0.25   6.0   WNW   16.5   16.6   16.6  1013.3  0.00  0.00   0.006   0.000   28.9    49   17.2   29.9   8.87  .0716    117    1    100.0    5 
21/07/16   1:15   16.4   16.5   16.4    83   13.5   4.0    NW   0.33   7.0    NW   16.4   16.6   16.6  1013.3  0.00  0.00   0.007   0.000   28.9    49   17.1   29.8   8.87  .0716    117    1    100.0    5 
21/07/16   1:20   16.4   16.4   16.4    82   13.3   2.0   WNW   0.17   6.0   NNW   16.4   16.5   16.5  1013.4  0.00  0.00   0.007   0.000   28.8    49   17.1   29.7   8.87  .0716    116    1    100.0    5 
21/07/16   1:25   16.3   16.4   16.3    82   13.3   3.0   WNW   0.25   7.0    NW   16.3   16.4   16.4  1013.3  0.00  0.00   0.007   0.000   28.8    50   17.4   29.8   9.07  .0716    117    1    100.0    5 
21/07/16   1:30   16.3   16.3   16.3    82   13.2   3.0   WNW   0.25   5.0    NW   16.3   16.3   16.3  1013.4  0.00  0.00   0.007   0.000   28.8    50   17.4   29.8   9.07  .0716    116    1    100.0    5 
21/07/16   1:35   16.2   16.3   16.2    82   13.1   4.0   WNW   0.33   7.0     W   16.2   16.2   16.2  1013.4  0.00  0.00   0.008   0.000   28.8    50   17.4   29.8   9.07  .0716    115    1    100.0    5 
21/07/16   1:40   16.1   16.2   16.1    82   13.0   5.0   WNW   0.42   7.0   WNW   16.1   16.2   16.2  1013.4  0.00  0.00   0.008   0.000   28.8    50   17.4   29.8   9.07  .0716    117    1    100.0    5 
21/07/16   1:45   16.1   16.1   16.1    82   13.0   3.0   WNW   0.25   6.0   WNW   16.1   16.1   16.1  1013.4  0.00  0.00   0.008   0.000   28.8    50   17.3   29.7   9.07  .0716    117    1    100.0    5 
21/07/16   1:50   16.0   16.1   16.0    82   12.9   3.0   WNW   0.25   7.0    NW   16.0   16.1   16.1  1013.5  0.00  0.00   0.008   0.000   28.8    50   17.3   29.7   9.07  .0716    117    1    100.0    5 
21/07/16   1:55   15.9   16.0   15.9    82   12.8   2.0     W   0.17   5.0   WNW   15.9   15.9   15.9  1013.5  0.00  0.00   0.008   0.000   28.7    50   17.3   29.6   9.08  .0716    117    1    100.0    5 
21/07/16   2:00   15.8   15.9   15.8    82   12.8   3.0     W   0.25   5.0     W   15.8   15.8   15.8  1013.5  0.00  0.00   0.009   0.000   28.7    50   17.3   29.6   9.08  .0716    117    1    100.0    5 
21/07/16   2:05   15.8   15.8   15.8    83   12.9   3.0   WNW   0.25   5.0    NW   15.8   15.8   15.8  1013.5  0.00  0.00   0.009   0.000   28.7    50   17.2   29.6   9.08  .0717    117    1    100.0    5 
21/07/16   2:10   15.7   15.8   15.7    83   12.8   2.0   WNW   0.17   5.0   WNW   15.7   15.7   15.7  1013.5  0.00  0.00   0.009   0.000   28.7    50   17.2   29.6   9.08  .0717    117    1    100.0    5 
21/07/16   2:15   15.7   15.7   15.7    83   12.8   2.0   WNW   0.17   4.0   WNW   15.7   15.7   15.7  1013.7  0.00  0.00   0.009   0.000   28.7    50   17.2   29.6   9.08  .0717    116    1    100.0    5 
21/07/16   2:20   15.6   15.7   15.6    83   12.7   1.0     W   0.08   3.0     W   15.6   15.6   15.6  1013.7  0.00  0.00   0.009   0.000   28.7    50   17.2   29.6   9.08  .0717    118    1    100.0    5 
21/07/16   2:25   15.5   15.6   15.5    83   12.6   0.0   ---   0.00   0.0   ---   15.5   15.5   15.5  1013.7  0.00  0.00   0.010   0.000   28.6    50   17.2   29.4   9.08  .0717    117    1    100.0    5 
21/07/16   2:30   15.4   15.5   15.4    83   12.6   1.0     W   0.08   4.0     W   15.4   15.4   15.4  1013.7  0.00  0.00   0.010   0.000   28.6    51   17.5   29.5   9.28  .0717    116    1    100.0    5 
21/07/16   2:35   15.3   15.4   15.3    83   12.5   3.0   WSW   0.25   4.0     W   15.3   15.3   15.3  1013.6  0.00  0.00   0.010   0.000   28.6    51   17.4   29.4   9.28  .0717    117    1    100.0    5 
21/07/16   2:40   15.3   15.3   15.3    83   12.4   3.0     W   0.25   4.0   WSW   15.3   15.3   15.3  1013.7  0.00  0.00   0.011   0.000   28.6    51   17.4   29.4   9.28  .0717    117    1    100.0    5 
21/07/16   2:45   15.2   15.3   15.2    84   12.5   3.0     W   0.25   5.0   WSW   15.2   15.2   15.2  1013.7  0.00  0.00   0.011   0.000   28.6    51   17.4   29.4   9.28  .0717    117    1    100.0    5 
21/07/16   2:50   15.2   15.2   15.2    84   12.5   3.0     W   0.25   6.0     W   15.2   15.2   15.2  1013.6  0.00  0.00   0.011   0.000   28.6    51   17.4   29.4   9.28  .0717    116    1    100.0    5 
21/07/16   2:55   15.1   15.2   15.1    84   12.4   1.0     W   0.08   4.0     W   15.1   15.1   15.1  1013.6  0.00  0.00   0.011   0.000   28.6    51   17.4   29.4   9.28  .0717    116    1    100.0    5 
21/07/16   3:00   15.1   15.1   15.1    84   12.4   1.0     W   0.08   2.0     W   15.1   15.1   15.1  1013.7  0.00  0.00   0.011   0.000   28.6    50   17.1   29.3   9.08  .0717    117    1    100.0    5 
21/07/16   3:05   15.0   15.1   15.0    84   12.3   0.0     W   0.00   2.0     W   15.0   15.0   15.0  1013.6  0.00  0.00   0.012   0.000   28.6    51   17.4   29.4   9.28  .0717    117    1    100.0    5 
21/07/16   3:10   14.9   15.0   14.9    84   12.3   0.0     W   0.00   2.0     W   14.9   14.9   14.9  1013.7  0.00  0.00   0.012   0.000   28.5    50   17.1   29.3   9.08  .0717    117    1    100.0    5 
21/07/16   3:15   14.9   14.9   14.9    84   12.2   1.0     W   0.08   4.0     W   14.9   14.8   14.8  1013.7  0.00  0.00   0.012   0.000   28.6    50   17.1   29.3   9.08  .0717    115    1    100.0    5 
21/07/16   3:20   14.8   14.9   14.8    84   12.2   1.0     W   0.08   4.0     W   14.8   14.8   14.8  1013.7  0.00  0.00   0.012   0.000   28.6    50   17.1   29.3   9.08  .0717    115    1    100.0    5 
21/07/16   3:25   14.8   14.8   14.8    84   12.1   2.0     W   0.17   4.0     W   14.8   14.7   14.7  1013.7  0.00  0.00   0.012   0.000   28.6    50   17.1   29.3   9.08  .0717    118    1    100.0    5 
21/07/16   3:30   14.7   14.8   14.7    84   12.0   2.0     W   0.17   3.0     W   14.7   14.7   14.7  1013.8  0.00  0.00   0.013   0.000   28.6    50   17.1   29.3   9.08  .0717    117    1    100.0    5 
21/07/16   3:35   14.7   14.7   14.7    85   12.2   1.0     W   0.08   3.0     W   14.7   14.6   14.6  1013.8  0.00  0.00   0.013   0.000   28.6    50   17.1   29.3   9.08  .0717    117    1    100.0    5 
21/07/16   3:40   14.6   14.7   14.6    84   11.9   4.0     W   0.33   6.0     W   14.6   14.6   14.6  1013.8  0.00  0.00   0.013   0.000   28.6    50   17.1   29.3   9.08  .0717    116    1    100.0    5 
21/07/16   3:45   14.6   14.6   14.6    85   12.1   4.0     W   0.33   7.0     W   14.6   14.5   14.5  1013.8  0.00  0.00   0.013   0.000   28.6    50   17.1   29.3   9.08  .0717    116    1    100.0    5 
21/07/16   3:50   14.6   14.6   14.6    85   12.1   4.0     W   0.33   6.0     W   14.6   14.5   14.5  1013.8  0.00  0.00   0.013   0.000   28.6    50   17.1   29.3   9.08  .0717    116    1    100.0    5 
21/07/16   3:55   14.6   14.6   14.5    85   12.1   4.0     W   0.33   7.0     W   14.6   14.5   14.5  1013.8  0.00  0.00   0.013   0.000   28.6    50   17.1   29.3   9.08  .0717    116    1    100.0    5 
21/07/16   4:00   14.5   14.6   14.5    85   12.0   4.0     W   0.33   7.0     W   14.5   14.4   14.4  1013.9  0.00  0.00   0.013   0.000   28.6    50   17.1   29.3   9.08  .0717    117    1    100.0    5 
21/07/16   4:05   14.5   14.5   14.4    85   12.0   4.0     W   0.33   6.0     W   14.5   14.4   14.4  1013.9  0.00  0.00   0.013   0.000   28.5    49   16.7   29.2   8.88  .0718    114    1    100.0    5 
21/07/16   4:10   14.4   14.5   14.4    86   12.1   3.0     W   0.25   6.0     W   14.4   14.4   14.4  1014.0  0.00  0.00   0.014   0.000   28.5    49   16.7   29.2   8.88  .0718    117    1    100.0    5 
21/07/16   4:15   14.4   14.4   14.4    86   12.1   3.0   WNW   0.25   5.0   WNW   14.4   14.3   14.3  1014.1  0.00  0.00   0.014   0.000   28.5    49   16.7   29.2   8.88  .0718    117    1    100.0    5 
21/07/16   4:20   14.4   14.4   14.4    86   12.1   2.0     W   0.17   5.0     W   14.4   14.3   14.3  1014.1  0.00  0.00   0.014   0.000   28.4    49   16.7   29.1   8.89  .0718    117    1    100.0    5 
21/07/16   4:25   14.3   14.4   14.3    86   12.0   1.0   WNW   0.08   4.0   WNW   14.3   14.3   14.3  1014.1  0.00  0.00   0.014   0.000   28.4    49   16.7   29.1   8.89  .0718    117    1    100.0    5 
21/07/16   4:30   14.3   14.3   14.3    86   12.0   1.0   WNW   0.08   4.0   WNW   14.3   14.2   14.2  1014.2  0.00  0.00   0.014   0.000   28.4    49   16.6   29.0   8.89  .0718    116    1    100.0    5 
21/07/16   4:35   14.3   14.3   14.3    86   12.0   2.0   WNW   0.17   5.0   WNW   14.3   14.2   14.2  1014.3  0.00  0.00   0.014   0.000   28.4    49   16.6   29.0   8.89  .0718    116    1    100.0    5 
21/07/16   4:40   14.2   14.3   14.2    87   12.1   3.0   WNW   0.25   5.0   WNW   14.2   14.2   14.2  1014.1  0.00  0.00   0.014   0.000   28.3    49   16.6   28.9   8.89  .0718    117    1    100.0    5 
21/07/16   4:45   14.2   14.2   14.2    87   12.0   3.0     W   0.25   6.0   WNW   14.2   14.2   14.2  1014.0  0.00  0.00   0.014   0.000   28.3    49   16.6   28.9   8.89  .0718    117    1    100.0    5 
21/07/16   4:50   14.1   14.2   14.1    87   12.0   3.0   WNW   0.25   6.0    NW   14.1   14.1   14.1  1014.1  0.00  0.00   0.015   0.000   28.3    49   16.6   28.9   8.89  .0718    116    1    100.0    5 
21/07/16   4:55   14.1   14.1   14.1    87   12.0   2.0    NW   0.17   5.0   WNW   14.1   14.1   14.1  1014.1  0.00  0.00   0.015   0.000   28.3    49   16.6   28.9   8.89  .0718    115    1    100.0    5 
21/07/16   5:00   14.1   14.1   14.0    88   12.1   3.0   WNW   0.25   6.0   WNW   14.1   14.1   14.1  1014.2  0.00  0.00   0.015   0.000   28.3    49   16.6   28.9   8.89  .0718    116    1    100.0    5 
21/07/16   5:05   14.0   14.0   14.0    88   12.0   2.0   WNW   0.17   4.0   WNW   14.0   14.0   14.0  1014.3  0.00  0.00   0.015   0.000   28.3    49   16.5   28.8   8.89  .0719    117    1    100.0    5 
21/07/16   5:10   13.9   14.0   13.9    88   12.0   2.0   WNW   0.17   4.0   WNW   13.9   13.9   13.9  1014.2  0.00  0.00   0.015   0.000   28.3    49   16.5   28.8   8.89  .0719    117    1    100.0    5 
21/07/16   5:15   13.9   13.9   13.9    88   11.9   3.0   WNW   0.25   4.0    NW   13.9   13.9   13.9  1014.2  0.00  0.00   0.015   0.000   28.2    49   16.5   28.7   8.89  .0719    117    1    100.0    5 
21/07/16   5:20   13.8   13.9   13.8    88   11.9   4.0     W   0.33   6.0     W   13.8   13.8   13.8  1014.3  0.00  0.00   0.016   0.000   28.2    49   16.5   28.7   8.89  .0719    117    1    100.0    5 
21/07/16   5:25   13.8   13.9   13.8    89   12.1   4.0     W   0.33   7.0     W   13.8   13.9   13.9  1014.4  0.00  0.00   0.016   0.000   28.2    49   16.5   28.7   8.89  .0719    117    1    100.0    5 
21/07/16   5:30   13.8   13.8   13.8    89   12.1   4.0     W   0.33   8.0   WSW   13.8   13.9   13.9  1014.4  0.00  0.00   0.016   0.000   28.2    49   16.4   28.7   8.90  .0719    117    1    100.0    5 
21/07/16   5:35   13.8   13.8   13.8    89   12.1   4.0     W   0.33   7.0     W   13.8   13.9   13.9  1014.4  0.00  0.00   0.016   0.000   28.1    49   16.4   28.6   8.90  .0719    117    1    100.0    5 
21/07/16   5:40   13.8   13.8   13.8    89   12.1   5.0     W   0.42   7.0     W   13.5   13.9   13.6  1014.4  0.00  0.00   0.016   0.000   28.1    49   16.4   28.6   8.90  .0719    115    1    100.0    5 
21/07/16   5:45   13.8   13.8   13.8    89   12.1   4.0     W   0.33   8.0     W   13.8   13.9   13.9  1014.4  0.00  0.00   0.016   0.000   28.1    49   16.4   28.6   8.90  .0719    116    1    100.0    5 
21/07/16   5:50   13.9   13.9   13.8    89   12.1   5.0     W   0.42   8.0   WNW   13.6   13.9   13.6  1014.4  0.00  0.00   0.015   0.000   28.1    49   16.3   28.5   8.90  .0719    117    1    100.0    5 
21/07/16   5:55   13.9   13.9   13.9    90   12.3   4.0   WNW   0.33   7.0     W   13.9   14.0   14.0  1014.5  0.00  0.00   0.015   0.000   28.0    49   16.3   28.4   8.90  .0720    116    1    100.0    5 
21/07/16   6:00   14.0   14.0   13.9    89   12.2   5.0   WNW   0.42  10.0   WNW   13.7   14.1   13.7  1014.7  0.00  0.00   0.015   0.000   28.0    49   16.3   28.4   8.90  .0720    116    1    100.0    5 
21/07/16   6:05   14.1   14.1   14.0    89   12.3   4.0   WNW   0.33   9.0    NW   14.1   14.1   14.1  1014.7  0.00  0.00   0.015   0.000   27.9    49   16.2   28.3   8.90  .0720    117    1    100.0    5 
21/07/16   6:10   14.2   14.2   14.1    89   12.4   5.0   WNW   0.42   9.0   WNW   13.9   14.2   13.9  1014.7  0.00  0.00   0.014   0.000   27.9    49   16.2   28.2   8.91  .0720    116    1    100.0    5 
21/07/16   6:15   14.2   14.2   14.1    89   12.4   6.0   WNW   0.50  11.0   WNW   13.7   14.2   13.7  1014.7  0.00  0.00   0.014   0.000   27.9    49   16.2   28.2   8.91  .0720    117    1    100.0    5 
21/07/16   6:20   14.3   14.3   14.2    89   12.5   4.0     W   0.33   9.0   WNW   14.3   14.3   14.3  1014.8  0.00  0.00   0.014   0.000   27.9    49   16.2   28.2   8.91  .0720    116    1    100.0    5 
21/07/16   6:25   14.3   14.3   14.3    89   12.5   3.0   WNW   0.25  10.0     W   14.3   14.4   14.4  1014.8  0.00  0.00   0.014   0.000   27.8    49   16.1   28.1   8.91  .0720    116    1    100.0    5 
21/07/16   6:30   14.4   14.4   14.3    89   12.6   4.0     W   0.33   8.0     W   14.4   14.4   14.4  1014.8  0.00  0.00   0.014   0.000   27.8    49   16.1   28.1   8.91  .0720    117    1    100.0    5 
21/07/16   6:35   14.4   14.4   14.4    89   12.7   6.0   WNW   0.50   9.0   WNW   14.0   14.5   14.1  1014.8  0.00  0.00   0.014   0.000   27.8    49   16.1   28.1   8.91  .0721    118    1    100.0    5 
21/07/16   6:40   14.6   14.6   14.4    89   12.8   5.0   WNW   0.42   8.0   WNW   14.3   14.6   14.4  1014.8  0.00  0.00   0.013   0.000   27.8    49   16.1   28.1   8.91  .0721    115    1    100.0    5 
21/07/16   6:45   14.6   14.6   14.6    89   12.8   6.0   WNW   0.50  10.0   WNW   14.2   14.7   14.3  1014.8  0.00  0.00   0.013   0.000   27.7    49   16.0   27.9   8.91  .0721    117    1    100.0    5 
21/07/16   6:50   14.7   14.7   14.6    88   12.8   6.0   WNW   0.50   9.0   WNW   14.3   14.8   14.4  1014.9  0.00  0.00   0.013   0.000   27.7    49   16.0   27.9   8.91  .0721    117    1    100.0    5 
21/07/16   6:55   14.8   14.8   14.7    88   12.8   5.0   WNW   0.42  10.0     W   14.6   14.8   14.7  1014.8  0.00  0.00   0.012   0.000   27.6    49   15.9   27.8   8.92  .0721    117    1    100.0    5 
21/07/16   7:00   14.8   14.8   14.8    88   12.8   6.0   WNW   0.50   9.0   WNW   14.4   14.8   14.4  1014.8  0.00  0.00   0.012   0.000   27.5    49   15.8   27.7   8.92  .0721    117    1    100.0    5 
21/07/16   7:05   14.8   14.8   14.8    88   12.9   5.0   WNW   0.42   7.0     W   14.7   14.9   14.7  1014.9  0.00  0.00   0.012   0.000   27.4    50   16.1   27.7   9.12  .0721    116    1    100.0    5 
21/07/16   7:10   14.8   14.8   14.8    88   12.9   5.0   WNW   0.42   8.0    NW   14.7   14.9   14.7  1015.0  0.00  0.00   0.012   0.000   27.3    50   16.0   27.5   9.13  .0722    116    1    100.0    5 
21/07/16   7:15   14.9   14.9   14.8    88   12.9   3.0   WNW   0.25   7.0     W   14.9   14.9   14.9  1015.1  0.00  0.00   0.012   0.000   27.3    50   15.9   27.4   9.13  .0722    115    1    100.0    5 
21/07/16   7:20   15.1   15.1   14.9    88   13.1   4.0     W   0.33   6.0     W   15.1   15.1   15.1  1015.2  0.00  0.00   0.011   0.000   27.2    50   15.9   27.3   9.13  .0722    117    1    100.0    5 
21/07/16   7:25   15.2   15.2   15.1    88   13.2   4.0   WNW   0.33   7.0   WNW   15.2   15.2   15.2  1015.1  0.00  0.00   0.011   0.000   27.2    50   15.9   27.3   9.13  .0722    117    1    100.0    5 
21/07/16   7:30   15.3   15.3   15.2    88   13.3   4.0     W   0.33   8.0     W   15.3   15.4   15.4  1015.1  0.00  0.00   0.011   0.000   27.2    51   16.2   27.3   9.33  .0722    117    1    100.0    5 
21/07/16   7:35   15.3   15.3   15.3    88   13.4   5.0   WSW   0.42   7.0     W   15.3   15.4   15.4  1015.0  0.00  0.00   0.010   0.000   27.2    51   16.2   27.3   9.33  .0722    116    1    100.0    5 
21/07/16   7:40   15.4   15.4   15.3    88   13.5   5.0   WSW   0.42   8.0   WSW   15.4   15.6   15.6  1015.0  0.00  0.00   0.010   0.000   27.2    51   16.2   27.3   9.33  .0722    118    1    100.0    5 
21/07/16   7:45   15.6   15.6   15.4    88   13.6   4.0     W   0.33   8.0     W   15.6   15.7   15.7  1015.0  0.00  0.00   0.009   0.000   27.1    51   16.1   27.3   9.33  .0722    117    1    100.0    5 
21/07/16   7:50   15.8   15.8   15.7    88   13.8   4.0   WNW   0.33   6.0     W   15.8   15.9   15.9  1015.1  0.00  0.00   0.009   0.000   27.1    51   16.1   27.3   9.33  .0722    117    1    100.0    5 
21/07/16   7:55   15.9   15.9   15.8    87   13.7   3.0     W   0.25   5.0   WNW   15.9   16.0   16.0  1015.1  0.00  0.00   0.008   0.000   27.2    51   16.2   27.3   9.33  .0722    117    1    100.0    5 
21/07/16   8:00   16.1   16.1   15.9    87   13.9   3.0     W   0.25   6.0     W   16.1   16.2   16.2  1015.1  0.00  0.00   0.008   0.000   27.2    51   16.2   27.3   9.33  .0722    117    1    100.0    5 
21/07/16   8:05   16.2   16.2   16.1    87   14.1   3.0     W   0.25   6.0     W   16.2   16.4   16.4  1015.2  0.00  0.00   0.007   0.000   27.1    51   16.1   27.3   9.33  .0722    116    1    100.0    5 
21/07/16   8:10   16.4   16.4   16.2    87   14.3   3.0     W   0.25   5.0   WNW   16.4   16.6   16.6  1015.3  0.00  0.00   0.007   0.000   27.1    51   16.1   27.3   9.33  .0723    117    1    100.0    5 
21/07/16   8:15   16.6   16.6   16.4    86   14.2   4.0     W   0.33   7.0     W   16.6   16.7   16.7  1015.3  0.00  0.00   0.006   0.000   27.2    52   16.5   27.4   9.43  .0722    117    1    100.0    5 
21/07/16   8:20   16.8   16.8   16.6    86   14.4   3.0     W   0.25   5.0   WSW   16.8   17.0   17.0  1015.3  0.00  0.00   0.005   0.000   27.2    52   16.5   27.4   9.43  .0722    116    1    100.0    5 
21/07/16   8:25   17.0   17.0   16.8    86   14.6   1.0    NW   0.08   5.0    NW   17.0   17.3   17.3  1015.3  0.00  0.00   0.005   0.000   27.2    51   16.2   27.4   9.33  .0722    117    1    100.0    5 
21/07/16   8:30   17.3   17.3   17.1    86   15.0   1.0    NW   0.08   5.0   WNW   17.3   17.7   17.7  1015.4  0.00  0.00   0.003   0.000   27.2    51   16.2   27.4   9.33  .0722    117    1    100.0    5 
21/07/16   8:35   17.4   17.4   17.3    84   14.7   3.0     W   0.25   8.0     W   17.4   17.7   17.7  1015.4  0.00  0.00   0.003   0.000   27.3    51   16.3   27.5   9.33  .0722    117    1    100.0    5 
21/07/16   8:40   17.6   17.6   17.4    84   14.9   1.0     W   0.08   6.0     W   17.6   17.9   17.9  1015.4  0.00  0.00   0.003   0.000   27.3    51   16.3   27.5   9.33  .0722    118    1    100.0    5 
21/07/16   8:45   17.7   17.7   17.6    83   14.8   3.0     W   0.25   8.0     W   17.7   18.0   18.0  1015.5  0.00  0.00   0.002   0.000   27.3    51   16.3   27.5   9.33  .0722    116    1    100.0    5 
21/07/16   8:50   17.8   17.8   17.7    82   14.7   4.0   WNW   0.33   7.0     W   17.8   18.2   18.2  1015.4  0.00  0.00   0.002   0.000   27.3    51   16.3   27.6   9.33  .0722    117    1    100.0    5 
21/07/16   8:55   17.9   17.9   17.8    82   14.8   2.0     W   0.17   6.0   WNW   17.9   18.3   18.3  1015.5  0.00  0.00   0.001   0.000   27.4    51   16.4   27.7   9.32  .0722    117    1    100.0    5 
21/07/16   9:00   18.1   18.1   17.9    82   14.9   2.0    NW   0.17   8.0     N   18.1   18.4   18.4  1015.5  0.00  0.00   0.001   0.000   27.4    51   16.4   27.7   9.32  .0722    117    1    100.0    5 
21/07/16   9:05   18.2   18.2   18.1    81   14.9   4.0   NNW   0.33   8.0     N   18.2   18.6   18.6  1015.5  0.00  0.00   0.000   0.000   27.5    50   16.1   27.7   9.12  .0722    117    1    100.0    5 
21/07/16   9:10   18.3   18.3   18.2    80   14.8   6.0   NNW   0.50  11.0   NNW   18.3   18.7   18.7  1015.4  0.00  0.00   0.000   0.000   27.5    49   15.8   27.7   8.92  .0722    117    1    100.0    5 
21/07/16   9:15   18.2   18.3   18.2    79   14.5   6.0   NNW   0.50  11.0    NW   18.2   18.5   18.5  1015.6  0.00  0.00   0.001   0.000   27.5    49   15.8   27.7   8.92  .0722    117    1    100.0    5 
21/07/16   9:20   18.2   18.2   18.2    80   14.7   4.0     N   0.33   8.0     N   18.2   18.6   18.6  1015.5  0.00  0.00   0.000   0.000   27.4    48   15.5   27.5   8.82  .0722    117    1    100.0    5 
21/07/16   9:25   18.3   18.3   18.2    80   14.8   4.0   NNW   0.33   8.0    NW   18.3   18.7   18.7  1015.5  0.00  0.00   0.000   0.000   27.4    49   15.8   27.6   8.92  .0722    117    1    100.0    5 
21/07/16   9:30   18.3   18.3   18.3    79   14.6   4.0    NW   0.33   8.0   NNW   18.3   18.7   18.7  1015.6  0.00  0.00   0.000   0.000   27.4    49   15.8   27.6   8.92  .0722    117    1    100.0    5 
21/07/16   9:35   18.4   18.4   18.3    80   14.9   6.0   NNW   0.50   9.0   NNW   18.4   18.8   18.8  1015.7  0.00  0.00   0.000   0.000   27.4    48   15.4   27.4   8.82  .0723    117    1    100.0    5 
21/07/16   9:40   18.7   18.7   18.4    80   15.1   4.0     N   0.33   8.0   NNW   18.7   19.1   19.1  1015.7  0.00  0.00   0.000   0.001   27.3    48   15.4   27.3   8.83  .0723    117    1    100.0    5 
21/07/16   9:45   18.9   18.9   18.7    80   15.4   5.0   NNW   0.42  10.0   NNW   18.9   19.4   19.4  1015.8  0.00  0.00   0.000   0.002   27.3    48   15.4   27.3   8.83  .0723    118    1    100.0    5 
21/07/16   9:50   19.2   19.2   18.9    79   15.4   5.0     N   0.42   7.0   NNW   19.2   19.7   19.7  1015.8  0.00  0.00   0.000   0.003   27.3    48   15.4   27.3   8.83  .0723    117    1    100.0    5 
21/07/16   9:55   19.3   19.3   19.2    78   15.3   3.0   NNW   0.25   7.0     N   19.3   19.8   19.8  1015.8  0.00  0.00   0.000   0.003   27.3    48   15.3   27.3   8.83  .0723    117    1    100.0    5 
21/07/16  10:00   19.4   19.4   19.3    77   15.3   4.0   NNW   0.33   7.0   NNW   19.4   19.8   19.8  1015.7  0.00  0.00   0.000   0.004   27.3    48   15.3   27.3   8.83  .0723    117    1    100.0    5 
21/07/16  10:05   19.6   19.6   19.4    77   15.4   2.0   NNW   0.17   6.0     N   19.6   20.1   20.1  1015.7  0.00  0.00   0.000   0.004   27.3    49   15.6   27.3   8.93  .0723    117    1    100.0    5 
21/07/16  10:10   19.8   19.8   19.6    77   15.6   1.0   NNW   0.08   5.0     N   19.8   20.3   20.3  1015.9  0.00  0.00   0.000   0.005   27.3    49   15.6   27.3   8.93  .0723    116    1    100.0    5 
21/07/16  10:15   19.8   19.8   19.7    77   15.6   0.0   WNW   0.00   2.0   WNW   19.8   20.3   20.3  1015.9  0.00  0.00   0.000   0.005   27.3    50   15.9   27.4   9.13  .0723    114    1    100.0    5 
21/07/16  10:20   19.8   19.9   19.8    76   15.5   0.0     W   0.00   4.0   NNW   19.8   20.3   20.3  1015.8  0.00  0.00   0.000   0.005   27.3    50   16.0   27.5   9.13  .0722    117    1    100.0    5 
21/07/16  10:25   19.9   19.9   19.8    75   15.3   3.0   WNW   0.25   5.0   NNW   19.9   20.4   20.4  1015.8  0.00  0.00   0.000   0.005   27.3    50   16.0   27.5   9.13  .0722    117    1    100.0    5 
21/07/16  10:30   20.0   20.0   19.9    76   15.6   3.0   WSW   0.25   6.0     W   20.0   20.6   20.6  1015.8  0.00  0.00   0.000   0.006   27.4    51   16.4   27.7   9.32  .0722    117    1    100.0    5 
21/07/16  10:35   19.8   20.1   19.8    75   15.3   4.0   WSW   0.33   8.0   WSW   19.8   20.3   20.3  1015.8  0.00  0.00   0.000   0.005   27.4    51   16.4   27.7   9.32  .0722    116    1    100.0    5 
21/07/16  10:40   19.7   19.8   19.7    75   15.1   4.0   WNW   0.33   8.0   WNW   19.7   20.1   20.1  1015.9  0.00  0.00   0.000   0.005   27.4    51   16.4   27.7   9.32  .0722    117    1    100.0    5 
21/07/16  10:45   19.7   19.7   19.7    76   15.4   2.0    NW   0.17   5.0    NW   19.7   20.2   20.2  1015.8  0.00  0.00   0.000   0.005   27.5    51   16.5   27.8   9.32  .0722    118    1    100.0    5 
21/07/16  10:50   19.9   19.9   19.7    75   15.3   4.0    NW   0.33   8.0   WNW   19.9   20.4   20.4  1015.8  0.00  0.00   0.000   0.005   27.5    51   16.5   27.8   9.32  .0722    117    1    100.0    5 
21/07/16  10:55   19.9   19.9   19.9    75   15.3   5.0     W   0.42   8.0     W   19.9   20.4   20.4  1015.9  0.00  0.00   0.000   0.005   27.6    51   16.5   27.9   9.32  .0722    116    1    100.0    5 
21/07/16  11:00   20.0   20.1   19.9    75   15.4   2.0   WNW   0.17   6.0    NW   20.0   20.5   20.5  1015.8  0.00  0.00   0.000   0.006   27.6    51   16.6   27.9   9.32  .0721    117    1    100.0    5 
21/07/16  11:05   20.1   20.1   20.0    74   15.3   2.0   WNW   0.17   7.0   WNW   20.1   20.5   20.5  1015.9  0.00  0.00   0.000   0.006   27.6    51   16.6   27.9   9.32  .0721    116    1    100.0    5 
21/07/16  11:10   20.1   20.1   20.1    75   15.5   2.0   WNW   0.17   5.0    NW   20.1   20.6   20.6  1015.8  0.00  0.00   0.000   0.006   27.6    51   16.6   27.9   9.32  .0721    117    1    100.0    5 
21/07/16  11:15   20.2   20.2   20.1    75   15.6   2.0     W   0.17   5.0   WNW   20.2   20.7   20.7  1015.8  0.00  0.00   0.000   0.007   27.7    51   16.7   28.1   9.31  .0721    117    1    100.0    5 
21/07/16  11:20   20.2   20.3   20.2    75   15.6   2.0   WSW   0.17   4.0    NW   20.2   20.7   20.7  1015.8  0.00  0.00   0.000   0.006   27.7    51   16.7   28.1   9.31  .0721    116    1    100.0    5 
21/07/16  11:25   20.2   20.2   20.1    76   15.8   2.0   NNW   0.17   6.0   WSW   20.2   20.7   20.7  1015.8  0.00  0.00   0.000   0.006   27.8    51   16.7   28.2   9.31  .0721    117    1    100.0    5 
21/07/16  11:30   20.2   20.2   20.2    75   15.6   4.0   WNW   0.33   8.0     W   20.2   20.7   20.7  1015.8  0.00  0.00   0.000   0.006   27.8    51   16.8   28.3   9.31  .0721    116    1    100.0    5 
21/07/16  11:35   20.2   20.2   20.2    75   15.6   1.0   WNW   0.08   5.0    NW   20.2   20.7   20.7  1015.9  0.00  0.00   0.000   0.007   27.8    51   16.8   28.3   9.31  .0721    117    1    100.0    5 
21/07/16  11:40   20.1   20.3   20.1    75   15.5   4.0    SW   0.33   8.0   WSW   20.1   20.6   20.6  1015.8  0.00  0.00   0.000   0.006   27.9    51   16.8   28.4   9.31  .0720    117    1    100.0    5 
21/07/16  11:45   19.4   20.1   19.4    77   15.3   6.0    SW   0.50   9.0    SW   19.4   19.9   19.9  1015.7  0.00  0.00   0.000   0.004   27.9    51   16.8   28.4   9.31  .0720    116    1    100.0    5 
21/07/16  11:50   19.3   19.4   19.3    80   15.8   9.0    SW   0.75  11.0    SW   18.6   19.9   19.2  1015.7  0.00  0.00   0.000   0.003   27.9    51   16.9   28.4   9.30  .0720    117    1    100.0    5 
21/07/16  11:55   19.2   19.3   19.2    81   15.9   8.0    SW   0.67  10.0   SSW   18.9   19.8   19.5  1015.8  0.00  0.00   0.000   0.003   27.9    51   16.9   28.4   9.30  .0720    116    1    100.0    5 
21/07/16  12:00   19.1   19.2   19.1    81   15.7   9.0    SW   0.75  10.0   SSW   18.3   19.6   18.9  1015.8  0.00  0.00   0.000   0.003   27.9    51   16.9   28.4   9.30  .0720    117    1    100.0    5 
21/07/16  12:05   18.9   19.1   18.9    82   15.8  10.0    SW   0.83  12.0    SW   17.8   19.5   18.4  1015.8  0.00  0.00   0.000   0.002   28.0    51   16.9   28.6   9.30  .0720    116    1    100.0    5 
21/07/16  12:10   18.7   18.9   18.7    82   15.6  10.0    SW   0.83  12.0    SW   17.6   19.2   18.1  1015.8  0.00  0.00   0.000   0.001   28.0    51   16.9   28.6   9.30  .0720    117    1    100.0    5 
21/07/16  12:15   18.8   18.8   18.6    84   16.0  10.0    SW   0.83  12.0    SW   17.7   19.3   18.2  1015.8  0.00  0.00   0.000   0.002   28.1    51   17.0   28.7   9.30  .0720    116    1    100.0    5 
21/07/16  12:20   19.0   19.0   18.8    83   16.0  10.0   SSW   0.83  13.0   SSW   17.9   19.6   18.4  1015.8  0.00  0.00   0.000   0.002   28.1    51   17.0   28.7   9.30  .0720    116    1    100.0    5 
21/07/16  12:25   19.2   19.2   19.1    83   16.3  10.0    SW   0.83  12.0   SSW   18.1   19.8   18.7  1015.8  0.00  0.00   0.000   0.003   28.2    52   17.4   28.9   9.40  .0719    117    1    100.0    5 
21/07/16  12:30   19.2   19.2   19.2    82   16.0  10.0   SSW   0.83  12.0    SW   18.1   19.8   18.7  1015.8  0.00  0.00   0.000   0.003   28.2    52   17.4   28.9   9.40  .0719    117    1    100.0    5 
21/07/16  12:35   19.1   19.2   19.1    82   16.0  11.0   SSW   0.92  13.0   SSW   17.6   19.7   18.2  1015.7  0.00  0.00   0.000   0.003   28.2    52   17.4   29.0   9.39  .0719    117    1    100.0    5 
21/07/16  12:40   19.2   19.2   19.1    83   16.2  11.0   SSW   0.92  13.0   SSW   17.7   19.8   18.3  1015.8  0.00  0.00   0.000   0.003   28.3    52   17.5   29.2   9.39  .0719    116    1    100.0    5 
21/07/16  12:45   19.2   19.2   19.1    82   16.0  11.0    SW   0.92  13.0    SW   17.7   19.8   18.3  1015.7  0.00  0.00   0.000   0.003   28.3    52   17.5   29.2   9.39  .0719    117    1    100.0    5 
21/07/16  12:50   19.3   19.4   19.2    82   16.2  11.0    SW   0.92  13.0    SW   17.9   19.9   18.5  1015.8  0.00  0.00   0.000   0.003   28.4    52   17.6   29.2   9.39  .0718    117    1    100.0    5 
21/07/16  12:55   19.3   19.3   19.2    83   16.4  11.0   SSW   0.92  14.0   SSW   17.9   20.0   18.6  1015.7  0.00  0.00   0.000   0.003   28.4    52   17.6   29.3   9.39  .0718    116    1    100.0    5 
21/07/16  13:00   19.4   19.5   19.3    82   16.3  11.0   SSW   0.92  14.0   SSW   18.0   20.1   18.7  1015.8  0.00  0.00   0.000   0.004   28.6    52   17.7   29.5   9.38  .0718    117    1    100.0    5 
21/07/16  13:05   19.3   19.5   19.3    83   16.4  11.0   SSW   0.92  13.0   SSW   17.9   20.0   18.6  1015.7  0.00  0.00   0.000   0.003   28.6    52   17.7   29.5   9.38  .0718    117    1    100.0    5 
21/07/16  13:10   19.3   19.3   19.3    84   16.6  10.0    SW   0.83  13.0    SW   18.2   20.0   18.9  1015.8  0.00  0.00   0.000   0.003   28.6    52   17.8   29.6   9.38  .0718    117    1    100.0    5 
21/07/16  13:15   19.4   19.4   19.3    84   16.6  11.0    SW   0.92  14.0    SW   17.9   20.1   18.6  1015.6  0.00  0.00   0.000   0.004   28.7    52   17.8   29.7   9.38  .0718    116    1    100.0    5 
21/07/16  13:20   19.4   19.4   19.3    83   16.4  11.0   SSW   0.92  13.0   SSW   17.9   20.1   18.6  1015.7  0.00  0.00   0.000   0.004   28.8    51   17.6   29.8   9.27  .0717    117    1    100.0    5 
21/07/16  13:25   19.3   19.4   19.3    83   16.3  11.0    SW   0.92  14.0   SSW   17.8   19.9   18.4  1015.7  0.00  0.00   0.000   0.003   28.8    51   17.6   29.8   9.27  .0717    115    1    100.0    5 
21/07/16  13:30   19.0   19.3   19.0    83   16.0  12.0    SW   1.00  14.0    SW   17.1   19.6   17.7  1015.8  0.00  0.00   0.000   0.002   28.8    51   17.7   29.9   9.27  .0717    116    1    100.0    5 
21/07/16  13:35   18.8   19.0   18.8    84   16.1  12.0    SW   1.00  15.0    SW   16.9   19.4   17.5  1015.7  0.00  0.00   0.000   0.002   28.9    51   17.7   30.0   9.27  .0717    116    1    100.0    5 
21/07/16  13:40   18.8   18.8   18.8    84   16.0  12.0    SW   1.00  15.0    SW   16.9   19.3   17.4  1015.8  0.00  0.00   0.000   0.002   29.0    51   17.8   30.1   9.27  .0717    115    1    100.0    5 
21/07/16  13:45   18.9   18.9   18.7    84   16.1  13.0    SW   1.08  15.0    SW   16.7   19.4   17.3  1015.8  0.00  0.00   0.000   0.002   29.0    51   17.8   30.1   9.27  .0717    117    1    100.0    5 
21/07/16  13:50   18.9   18.9   18.8    84   16.1  13.0    SW   1.08  15.0    SW   16.7   19.4   17.3  1015.9  0.00  0.00   0.000   0.002   29.1    51   17.9   30.2   9.26  .0717    117    1    100.0    5 
21/07/16  13:55   19.0   19.0   18.9    84   16.2  12.0    SW   1.00  15.0   WSW   17.1   19.6   17.7  1015.9  0.00  0.00   0.000   0.002   29.1    51   17.9   30.2   9.26  .0717    118    1    100.0    5 
21/07/16  14:00   19.1   19.1   19.0    84   16.3  12.0    SW   1.00  15.0    SW   17.2   19.7   17.8  1015.9  0.00  0.00   0.000   0.003   29.2    51   18.0   30.3   9.26  .0716    117    1    100.0    5 
21/07/16  14:05   18.9   19.1   18.9    85   16.4  12.0    SW   1.00  14.0    SW   17.1   19.5   17.6  1015.8  0.00  0.00   0.000   0.002   29.3    51   18.1   30.4   9.26  .0716    117    1    100.0    5 
21/07/16  14:10   18.9   19.0   18.9    84   16.2  11.0    SW   0.92  14.0    SW   17.4   19.5   18.0  1015.9  0.00  0.00   0.000   0.002   29.3    51   18.1   30.4   9.26  .0716    117    1    100.0    5 
21/07/16  14:15   19.1   19.1   18.9    85   16.5  10.0    SW   0.83  12.0   WSW   17.9   19.7   18.6  1015.9  0.00  0.00   0.000   0.003   29.3    51   18.1   30.4   9.25  .0716    117    1    100.0    5 
21/07/16  14:20   19.1   19.1   18.9    85   16.5  11.0    SW   0.92  13.0    SW   17.6   19.7   18.2  1015.9  0.00  0.00   0.000   0.003   29.4    51   18.2   30.5   9.25  .0716    117    1    100.0    5 
21/07/16  14:25   19.3   19.3   19.1    84   16.5  10.0    SW   0.83  13.0    SW   18.2   19.9   18.8  1015.9  0.00  0.00   0.000   0.003   29.4    51   18.2   30.6   9.25  .0715    117    1    100.0    5 
21/07/16  14:30   19.2   19.3   19.2    84   16.5  12.0    SW   1.00  14.0    SW   17.4   19.8   18.0  1016.0  0.00  0.00   0.000   0.003   29.5    51   18.3   30.7   9.25  .0715    117    1    100.0    5 
21/07/16  14:35   19.1   19.2   19.1    83   16.2  12.0    SW   1.00  14.0    SW   17.3   19.7   17.9  1015.9  0.00  0.00   0.000   0.003   29.6    51   18.3   30.7   9.25  .0715    116    1    100.0    5 
21/07/16  14:40   18.9   19.1   18.9    85   16.4  13.0    SW   1.08  15.0    SW   16.8   19.5   17.3  1015.9  0.00  0.00   0.000   0.002   29.6    51   18.4   30.8   9.24  .0715    117    1    100.0    5 
21/07/16  14:45   18.9   18.9   18.9    85   16.4  13.0    SW   1.08  16.0    SW   16.8   19.5   17.3  1016.0  0.00  0.00   0.000   0.002   29.7    51   18.5   30.9   9.24  .0715    117    1    100.0    5 
21/07/16  14:50   18.9   19.0   18.9    85   16.4  13.0    SW   1.08  15.0    SW   16.8   19.5   17.3  1015.9  0.00  0.00   0.000   0.002   29.7    51   18.5   31.0   9.24  .0715    116    1    100.0    5 
21/07/16  14:55   18.9   19.1   18.9    85   16.4  12.0    SW   1.00  14.0   SSW   17.1   19.5   17.6  1016.0  0.00  0.00   0.000   0.002   29.8    51   18.6   31.1   9.24  .0714    116    1    100.0    5 
21/07/16  15:00   19.0   19.0   18.9    85   16.4  13.0    SW   1.08  15.0    SW   16.8   19.6   17.4  1016.0  0.00  0.00   0.000   0.002   29.8    51   18.6   31.1   9.24  .0714    118    1    100.0    5 
21/07/16  15:05   19.0   19.1   19.0    85   16.4  14.0    SW   1.17  17.0    SW   16.6   19.6   17.2  1016.0  0.00  0.00   0.000   0.002   29.8    51   18.6   31.2   9.24  .0714    117    1    100.0    5 
21/07/16  15:10   19.1   19.1   19.0    85   16.5  13.0    SW   1.08  16.0    SW   16.9   19.7   17.6  1015.9  0.00  0.00   0.000   0.003   29.9    51   18.7   31.2   9.23  .0714    117    1    100.0    5 
21/07/16  15:15   19.0   19.1   19.0    86   16.6  12.0    SW   1.00  15.0    SW   17.1   19.6   17.7  1015.9  0.00  0.00   0.000   0.002   29.9    51   18.7   31.3   9.23  .0714    116    1    100.0    5 
21/07/16  15:20   18.9   19.1   18.9    85   16.4  13.0    SW   1.08  15.0   WSW   16.8   19.5   17.3  1015.8  0.00  0.00   0.000   0.002   30.0    50   18.4   31.2   9.05  .0714    116    1    100.0    5 
21/07/16  15:25   19.0   19.0   18.9    85   16.4  14.0    SW   1.17  17.0    SW   16.6   19.6   17.2  1015.9  0.00  0.00   0.000   0.002   30.0    50   18.4   31.2   9.05  .0714    117    1    100.0    5 
21/07/16  15:30   18.9   19.0   18.9    85   16.3  14.0    SW   1.17  17.0   WSW   16.5   19.4   17.1  1015.9  0.00  0.00   0.000   0.002   29.9    50   18.4   31.2   9.05  .0714    117    1    100.0    5 
21/07/16  15:35   18.8   18.9   18.8    86   16.4  13.0    SW   1.08  16.0    SW   16.7   19.4   17.2  1015.8  0.00  0.00   0.000   0.002   29.9    49   18.1   31.0   8.85  .0714    117    1    100.0    5 
21/07/16  15:40   18.8   18.8   18.8    86   16.4  14.0    SW   1.17  16.0    SW   16.4   19.4   17.0  1015.9  0.00  0.00   0.000   0.002   29.9    49   18.1   31.0   8.85  .0714    117    1    100.0    5 
21/07/16  15:45   18.9   18.9   18.8    86   16.5  13.0   WSW   1.08  16.0   WSW   16.8   19.6   17.4  1015.8  0.00  0.00   0.000   0.002   29.9    49   18.1   31.0   8.85  .0714    117    1    100.0    5 
21/07/16  15:50   18.8   18.9   18.8    85   16.2  14.0   WSW   1.17  16.0   WSW   16.4   19.3   16.9  1015.9  0.00  0.00   0.000   0.002   29.9    49   18.1   31.0   8.85  .0714    117    1    100.0    5 
21/07/16  15:55   18.8   18.8   18.7    85   16.2  14.0   WSW   1.17  17.0   WSW   16.4   19.3   16.9  1015.9  0.00  0.00   0.000   0.002   29.9    49   18.0   30.9   8.85  .0715    114    1    100.0    5 
21/07/16  16:00   18.8   18.8   18.7    85   16.2  15.0   WSW   1.25  18.0    SW   16.2   19.3   16.8  1015.9  0.00  0.00   0.000   0.002   29.9    49   18.0   30.9   8.85  .0715    117    1    100.0    5 
21/07/16  16:05   18.9   18.9   18.8    85   16.3  14.0   WSW   1.17  18.0   WSW   16.5   19.4   17.1  1015.9  0.00  0.00   0.000   0.002   29.9    49   18.0   30.9   8.85  .0715    117    1    100.0    5 
21/07/16  16:10   18.8   18.9   18.8    85   16.3  14.0   WSW   1.17  18.0   WSW   16.4   19.4   17.0  1015.9  0.00  0.00   0.000   0.002   29.8    49   18.0   30.9   8.85  .0715    117    1    100.0    5 
21/07/16  16:15   19.1   19.1   18.8    85   16.5  11.0   WSW   0.92  16.0   WSW   17.6   19.7   18.2  1015.9  0.00  0.00   0.000   0.003   29.8    49   18.0   30.9   8.85  .0715    117    1    100.0    5 
21/07/16  16:20   19.1   19.1   19.0    83   16.1  14.0   WSW   1.17  17.0   WNW   16.7   19.6   17.3  1015.8  0.00  0.00   0.000   0.003   29.8    49   17.9   30.8   8.85  .0715    115    1    100.0    5 
21/07/16  16:25   19.2   19.2   19.1    83   16.2  12.0   WSW   1.00  17.0   WSW   17.3   19.8   17.9  1015.8  0.00  0.00   0.000   0.003   29.8    49   17.9   30.8   8.85  .0715    114    1    100.0    5 
21/07/16  16:30   19.3   19.3   19.2    82   16.1  13.0   WSW   1.08  18.0   WSW   17.2   19.9   17.8  1015.8  0.00  0.00   0.000   0.003   29.7    49   17.9   30.7   8.85  .0715    115    1    100.0    5 
21/07/16  16:35   19.6   19.6   19.3    81   16.2  13.0   WSW   1.08  17.0   WSW   17.5   20.2   18.2  1015.8  0.00  0.00   0.000   0.004   29.7    49   17.9   30.7   8.85  .0715    117    1    100.0    5 
21/07/16  16:40   20.1   20.1   19.6    81   16.7  13.0   WSW   1.08  18.0   WSW   18.1   20.8   18.8  1015.8  0.00  0.00   0.000   0.006   29.7    49   17.9   30.7   8.85  .0715    117    1    100.0    5 
21/07/16  16:45   20.2   20.2   20.1    78   16.3  13.0   WSW   1.08  18.0   WSW   18.2   20.9   18.9  1015.9  0.00  0.00   0.000   0.007   29.7    49   17.9   30.7   8.85  .0715    116    1    100.0    5 
21/07/16  16:50   20.2   20.2   20.1    79   16.4  12.0   WSW   1.00  18.0   WSW   18.4   20.9   19.2  1015.8  0.00  0.00   0.000   0.006   29.7    49   17.9   30.7   8.85  .0715    116    1    100.0    5 
21/07/16  16:55   20.3   20.3   20.2    77   16.1  13.0   WSW   1.08  18.0     W   18.3   20.9   18.9  1015.8  0.00  0.00   0.000   0.007   29.7    49   17.9   30.7   8.85  .0715    116    1    100.0    5 
21/07/16  17:00   20.3   20.4   20.3    78   16.3  13.0   WSW   1.08  18.0   WSW   18.3   20.9   18.9  1015.8  0.00  0.00   0.000   0.007   29.7    49   17.9   30.7   8.85  .0715    117    1    100.0    5 
21/07/16  17:05   20.1   20.3   20.0    79   16.3  14.0   WSW   1.17  17.0   WSW   17.8   20.7   18.5  1015.8  0.00  0.00   0.000   0.006   29.7    50   18.2   30.8   9.05  .0715    116    1    100.0    5 
21/07/16  17:10   19.9   20.1   19.9    78   16.0  13.0   WSW   1.08  17.0   WSW   17.9   20.6   18.6  1015.8  0.00  0.00   0.000   0.006   29.7    50   18.2   30.8   9.05  .0715    117    1    100.0    5 
21/07/16  17:15   20.1   20.1   19.9    78   16.1  11.0   WSW   0.92  16.0   WSW   18.6   20.7   19.3  1015.7  0.00  0.00   0.000   0.006   29.7    50   18.2   30.8   9.05  .0715    116    1    100.0    5 
21/07/16  17:20   20.1   20.1   20.1    77   16.0  11.0   WSW   0.92  16.0   WSW   18.7   20.7   19.3  1015.7  0.00  0.00   0.000   0.006   29.7    49   17.9   30.7   8.85  .0715    117    1    100.0    5 
21/07/16  17:25   20.1   20.1   20.1    76   15.7  12.0   WSW   1.00  18.0   WSW   18.3   20.6   18.9  1015.6  0.00  0.00   0.000   0.006   29.7    49   17.9   30.7   8.85  .0715    117    1    100.0    5 
21/07/16  17:30   20.0   20.1   19.9    76   15.6  12.0   WSW   1.00  17.0   WSW   18.3   20.6   18.8  1015.5  0.00  0.00   0.000   0.006   29.7    49   17.9   30.7   8.85  .0715    117    1    100.0    5 
21/07/16  17:35   19.9   19.9   19.9    76   15.6  11.0   WSW   0.92  16.0   WSW   18.5   20.5   19.1  1015.5  0.00  0.00   0.000   0.006   29.7    49   17.9   30.7   8.85  .0715    116    1    100.0    5 
21/07/16  17:40   19.9   19.9   19.9    77   15.7  11.0   WSW   0.92  16.0   WSW   18.4   20.4   19.0  1015.5  0.00  0.00   0.000   0.005   29.7    49   17.8   30.7   8.85  .0715    117    1    100.0    5 
21/07/16  17:45   19.7   19.9   19.7    79   15.9  13.0   WSW   1.08  16.0   WSW   17.6   20.3   18.2  1015.5  0.00  0.00   0.000   0.005   29.7    49   17.9   30.7   8.85  .0715    117    1    100.0    5 
21/07/16  17:50   19.7   19.7   19.6    80   16.1  12.0   WSW   1.00  16.0    SW   17.9   20.3   18.6  1015.6  0.00  0.00   0.000   0.005   29.7    49   17.8   30.7   8.85  .0715    115    1    100.0    5 
21/07/16  17:55   19.6   19.7   19.6    81   16.2  13.0   WSW   1.08  16.0   WSW   17.5   20.2   18.2  1015.6  0.00  0.00   0.000   0.004   29.7    49   17.8   30.7   8.85  .0715    117    1    100.0    5 
21/07/16  18:00   19.7   19.7   19.6    80   16.1  12.0   WSW   1.00  17.0   WSW   17.9   20.3   18.6  1015.5  0.00  0.00   0.000   0.005   29.6    49   17.8   30.6   8.85  .0715    117    1    100.0    5 
21/07/16  18:05   19.7   19.8   19.7    80   16.2  12.0   WSW   1.00  17.0   WSW   18.0   20.4   18.7  1015.5  0.00  0.00   0.000   0.005   29.6    49   17.8   30.6   8.85  .0715    116    1    100.0    5 
21/07/16  18:10   19.7   19.7   19.7    80   16.1  13.0   WSW   1.08  17.0   WSW   17.6   20.3   18.3  1015.5  0.00  0.00   0.000   0.005   29.6    49   17.8   30.6   8.85  .0715    117    1    100.0    5 
21/07/16  18:15   19.7   19.7   19.7    80   16.1  13.0   WSW   1.08  17.0   WSW   17.6   20.3   18.3  1015.5  0.00  0.00   0.000   0.005   29.6    49   17.7   30.5   8.85  .0715    117    1    100.0    5 
21/07/16  18:20   19.7   19.7   19.7    80   16.1  11.0   WSW   0.92  16.0   WSW   18.2   20.3   18.9  1015.6  0.00  0.00   0.000   0.005   29.6    49   17.7   30.5   8.85  .0715    116    1    100.0    5 
21/07/16  18:25   19.6   19.7   19.6    80   16.1  12.0   WSW   1.00  16.0   WSW   17.8   20.3   18.5  1015.5  0.00  0.00   0.000   0.004   29.5    49   17.7   30.4   8.85  .0716    116    1    100.0    5 
21/07/16  18:30   19.6   19.6   19.6    81   16.3  13.0   WSW   1.08  16.0    SW   17.6   20.3   18.2  1015.6  0.00  0.00   0.000   0.004   29.5    49   17.7   30.4   8.85  .0716    117    1    100.0    5 
21/07/16  18:35   19.7   19.7   19.7    81   16.3  12.0   WSW   1.00  16.0   WSW   17.9   20.3   18.6  1015.6  0.00  0.00   0.000   0.005   29.5    49   17.7   30.4   8.85  .0716    116    1    100.0    5 
21/07/16  18:40   19.6   19.7   19.6    81   16.3  13.0   WSW   1.08  17.0    SW   17.6   20.3   18.2  1015.5  0.00  0.00   0.000   0.004   29.4    49   17.6   30.3   8.85  .0716    115    1    100.0    5 
21/07/16  18:45   19.6   19.7   19.6    82   16.5  13.0   WSW   1.08  17.0   WSW   17.6   20.3   18.2  1015.6  0.00  0.00   0.000   0.004   29.4    49   17.6   30.3   8.85  .0716    116    1    100.0    5 
21/07/16  18:50   19.6   19.6   19.6    81   16.3  12.0   WSW   1.00  17.0   WSW   17.8   20.3   18.5  1015.6  0.00  0.00   0.000   0.004   29.4    49   17.6   30.3   8.85  .0716    115    1    100.0    5 
21/07/16  18:55   19.6   19.6   19.6    82   16.4  12.0   WSW   1.00  18.0   WSW   17.8   20.2   18.4  1015.5  0.00  0.00   0.000   0.004   29.4    49   17.6   30.3   8.85  .0716    116    1    100.0    5 
21/07/16  19:00   19.6   19.6   19.6    82   16.5  10.0   WSW   0.83  17.0     W   18.5   20.3   19.2  1015.6  0.00  0.00   0.000   0.004   29.3    49   17.5   30.2   8.85  .0716    117    1    100.0    5 
21/07/16  19:05   19.7   19.7   19.6    82   16.5  10.0   WSW   0.83  16.0   WSW   18.6   20.4   19.3  1015.5  0.00  0.00   0.000   0.005   29.3    49   17.5   30.2   8.85  .0716    115    1    100.0    5 
21/07/16  19:10   19.7   19.7   19.7    81   16.3  10.0   WSW   0.83  15.0     W   18.6   20.3   19.2  1015.5  0.00  0.00   0.000   0.005   29.3    49   17.5   30.2   8.86  .0716    118    1    100.0    5 
21/07/16  19:15   19.7   19.7   19.7    80   16.2   9.0   WSW   0.75  12.0   WSW   19.0   20.4   19.7  1015.5  0.00  0.00   0.000   0.005   29.2    49   17.4   30.1   8.86  .0716    116    1    100.0    5 
21/07/16  19:20   19.8   19.8   19.7    79   16.0   8.0     W   0.67  15.0     W   19.4   20.4   20.0  1015.6  0.00  0.00   0.000   0.005   29.2    49   17.4   30.1   8.86  .0717    117    1    100.0    5 
21/07/16  19:25   19.8   19.8   19.8    79   16.0   8.0   WSW   0.67  13.0   WSW   19.4   20.4   20.0  1015.6  0.00  0.00   0.000   0.005   29.2    49   17.4   30.1   8.86  .0717    116    1    100.0    5 
21/07/16  19:30   19.8   19.8   19.8    78   15.9   8.0   WSW   0.67  14.0     W   19.4   20.4   20.1  1015.6  0.00  0.00   0.000   0.005   29.2    49   17.4   30.1   8.86  .0717    117    1    100.0    5 
21/07/16  19:35   19.8   19.8   19.8    78   15.9   7.0     W   0.58  12.0   WNW   19.8   20.4   20.4  1015.6  0.00  0.00   0.000   0.005   29.2    49   17.4   30.1   8.86  .0717    117    1    100.0    5 
21/07/16  19:40   19.9   19.9   19.8    77   15.7   6.0     W   0.50  10.0     W   19.9   20.4   20.4  1015.6  0.00  0.00   0.000   0.005   29.2    49   17.4   30.1   8.86  .0717    117    1    100.0    5 
21/07/16  19:45   19.9   19.9   19.8    75   15.3   8.0   WNW   0.67  12.0   WNW   19.5   20.4   20.0  1015.6  0.00  0.00   0.000   0.005   29.1    49   17.3   30.1   8.86  .0717    117    1    100.0    5 
21/07/16  19:50   20.0   20.0   19.9    74   15.2   8.0   WNW   0.67  13.0   WNW   19.6   20.4   20.1  1015.6  0.00  0.00   0.000   0.006   29.1    48   17.0   29.9   8.76  .0717    115    1    100.0    5 
21/07/16  19:55   20.1   20.1   20.0    73   15.1   7.0     W   0.58  13.0     W   20.1   20.5   20.5  1015.6  0.00  0.00   0.000   0.006   29.1    48   17.0   29.9   8.76  .0717    117    1    100.0    5 
21/07/16  20:00   20.0   20.1   20.0    73   15.0   7.0     W   0.58  11.0   WNW   20.0   20.4   20.4  1015.6  0.00  0.00   0.000   0.006   29.1    49   17.3   30.0   8.86  .0717    117    1    100.0    5 
21/07/16  20:05   19.9   20.0   19.9    73   15.0   7.0     W   0.58  11.0     W   19.9   20.4   20.4  1015.7  0.00  0.00   0.000   0.006   29.1    49   17.3   30.1   8.86  .0717    115    1    100.0    5 
21/07/16  20:10   19.9   19.9   19.9    73   14.9   8.0   WNW   0.67  11.0     W   19.5   20.3   19.9  1015.7  0.00  0.00   0.000   0.005   29.1    49   17.3   30.0   8.86  .0717    117    1    100.0    5 
21/07/16  20:15   19.8   19.9   19.8    73   14.9   6.0   WNW   0.50  10.0     W   19.8   20.2   20.2  1015.8  0.00  0.00   0.000   0.005   29.1    49   17.3   30.1   8.86  .0717    118    1    100.0    5 
21/07/16  20:20   19.8   19.8   19.8    73   14.9   7.0   WNW   0.58  11.0     W   19.8   20.2   20.2  1015.9  0.00  0.00   0.000   0.005   29.1    49   17.3   30.1   8.86  .0717    117    1    100.0    5 
21/07/16  20:25   19.8   19.8   19.8    74   15.0   5.0   WNW   0.42   9.0     W   19.8   20.2   20.2  1015.8  0.00  0.00   0.000   0.005   29.1    49   17.3   30.1   8.86  .0717    117    1    100.0    5 
21/07/16  20:30   19.8   19.8   19.8    74   15.0   5.0   WNW   0.42   9.0     W   19.8   20.2   20.2  1015.8  0.00  0.00   0.000   0.005   29.1    49   17.3   30.1   8.86  .0717    117    1    100.0    5 
21/07/16  20:35   19.7   19.8   19.7    74   15.0   5.0     W   0.42   8.0     W   19.7   20.1   20.1  1015.9  0.00  0.00   0.000   0.005   29.1    49   17.3   30.1   8.86  .0717    115    1    100.0    5 
21/07/16  20:40   19.7   19.7   19.7    74   14.9   4.0     W   0.33   8.0     W   19.7   20.1   20.1  1015.9  0.00  0.00   0.000   0.005   29.1    49   17.3   30.1   8.86  .0717    117    1    100.0    5 
21/07/16  20:45   19.6   19.7   19.6    75   15.1   5.0     W   0.42  11.0   WNW   19.6   20.1   20.1  1015.9  0.00  0.00   0.000   0.004   29.1    49   17.3   30.1   8.86  .0717    117    1    100.0    5 
21/07/16  20:50   19.6   19.6   19.6    75   15.0   5.0     W   0.42   8.0     W   19.6   19.9   19.9  1016.0  0.00  0.00   0.000   0.004   29.2    49   17.4   30.1   8.86  .0717    117    1    100.0    5 
21/07/16  20:55   19.5   19.6   19.5    75   14.9   5.0     W   0.42   8.0     W   19.5   19.9   19.9  1016.0  0.00  0.00   0.000   0.004   29.2    49   17.4   30.1   8.86  .0717    117    1    100.0    5 
21/07/16  21:00   19.4   19.5   19.4    75   14.9   5.0     W   0.42   9.0     W   19.4   19.8   19.8  1016.1  0.00  0.00   0.000   0.004   29.1    49   17.3   30.1   8.86  .0717    116    1    100.0    5 
21/07/16  21:05   19.4   19.4   19.4    75   14.8   5.0     W   0.42  11.0     W   19.4   19.8   19.8  1016.0  0.00  0.00   0.000   0.004   29.2    49   17.4   30.1   8.86  .0717    117    1    100.0    5 
21/07/16  21:10   19.4   19.4   19.3    75   14.8   5.0   WNW   0.42   9.0   WNW   19.4   19.8   19.8  1016.1  0.00  0.00   0.000   0.004   29.2    49   17.4   30.1   8.86  .0717    116    1    100.0    5 
21/07/16  21:15   19.3   19.4   19.3    76   15.0   5.0   WNW   0.42   8.0   WNW   19.3   19.7   19.7  1016.1  0.00  0.00   0.000   0.003   29.2    49   17.4   30.1   8.86  .0717    117    1    100.0    5 
21/07/16  21:20   19.3   19.3   19.3    76   15.0   3.0     W   0.25   7.0     W   19.3   19.7   19.7  1016.1  0.00  0.00   0.000   0.003   29.2    49   17.4   30.1   8.86  .0717    117    1    100.0    5 
21/07/16  21:25   19.3   19.3   19.3    76   15.0   3.0   WNW   0.25   6.0    NW   19.3   19.7   19.7  1016.1  0.00  0.00   0.000   0.003   29.2    49   17.4   30.1   8.86  .0717    117    1    100.0    5 
21/07/16  21:30   19.3   19.3   19.3    77   15.1   4.0   WNW   0.33   8.0   WNW   19.3   19.7   19.7  1016.1  0.00  0.00   0.000   0.003   29.2    49   17.4   30.1   8.86  .0717    116    1    100.0    5 
21/07/16  21:35   19.3   19.3   19.3    77   15.1   2.0   WNW   0.17   6.0    NW   19.3   19.7   19.7  1016.2  0.00  0.00   0.000   0.003   29.2    49   17.4   30.1   8.86  .0717    117    1    100.0    5 
21/07/16  21:40   19.2   19.3   19.2    77   15.1   2.0   WNW   0.17   6.0   WNW   19.2   19.7   19.7  1016.2  0.00  0.00   0.000   0.003   29.2    49   17.4   30.1   8.86  .0717    117    1    100.0    5 
21/07/16  21:45   19.2   19.2   19.2    77   15.1   3.0   WNW   0.25   5.0   WNW   19.2   19.7   19.7  1016.2  0.00  0.00   0.000   0.003   29.2    49   17.4   30.1   8.86  .0717    117    1    100.0    5 
21/07/16  21:50   19.2   19.2   19.2    77   15.0   3.0   WNW   0.25   6.0   WNW   19.2   19.6   19.6  1016.2  0.00  0.00   0.000   0.003   29.2    49   17.4   30.1   8.86  .0717    117    1    100.0    5 
21/07/16  21:55   19.2   19.2   19.2    78   15.2   2.0   WNW   0.17   5.0   WNW   19.2   19.6   19.6  1016.2  0.00  0.00   0.000   0.003   29.2    49   17.4   30.1   8.86  .0717    117    1    100.0    5 
21/07/16  22:00   19.1   19.2   19.1    78   15.2   3.0   WNW   0.25   6.0   WNW   19.1   19.6   19.6  1016.2  0.00  0.00   0.000   0.003   29.2    49   17.4   30.1   8.86  .0717    117    1    100.0    5 
21/07/16  22:05   19.1   19.1   19.1    79   15.3   3.0   WNW   0.25   6.0    NW   19.1   19.6   19.6  1016.3  0.00  0.00   0.000   0.003   29.2    49   17.4   30.1   8.86  .0717    117    1    100.0    5 
21/07/16  22:10   19.0   19.1   19.0    79   15.3   3.0   WNW   0.25   7.0   WNW   19.0   19.5   19.5  1016.3  0.00  0.00   0.000   0.002   29.1    49   17.3   30.1   8.86  .0717    117    1    100.0    5 
21/07/16  22:15   18.9   19.0   18.9    79   15.2   3.0   WNW   0.25   6.0   WNW   18.9   19.4   19.4  1016.3  0.00  0.00   0.000   0.002   29.1    49   17.3   30.1   8.86  .0717    117    1    100.0    5 
21/07/16  22:20   18.9   18.9   18.9    80   15.4   4.0   WNW   0.33   7.0   WNW   18.9   19.4   19.4  1016.3  0.00  0.00   0.000   0.002   29.1    49   17.3   30.1   8.86  .0717    115    1    100.0    5 
21/07/16  22:25   18.9   18.9   18.9    80   15.4   3.0   WNW   0.25   5.0   WNW   18.9   19.4   19.4  1016.4  0.00  0.00   0.000   0.002   29.2    49   17.4   30.1   8.86  .0717    114    1    100.0    5 
21/07/16  22:30   18.9   18.9   18.9    80   15.4   2.0     W   0.17   4.0    NW   18.9   19.4   19.4  1016.4  0.00  0.00   0.000   0.002   29.1    49   17.3   30.1   8.86  .0717    116    1    100.0    5 
21/07/16  22:35   18.9   18.9   18.9    81   15.6   2.0     W   0.17   5.0   WNW   18.9   19.4   19.4  1016.4  0.00  0.00   0.000   0.002   29.1    49   17.3   30.1   8.86  .0717    117    1    100.0    5 
21/07/16  22:40   18.9   18.9   18.9    81   15.6   3.0    NW   0.25   5.0   WNW   18.9   19.4   19.4  1016.4  0.00  0.00   0.000   0.002   29.1    49   17.3   30.1   8.86  .0717    115    1    100.0    5 
21/07/16  22:45   18.8   18.9   18.8    81   15.5   3.0   WNW   0.25   5.0   WNW   18.8   19.3   19.3  1016.4  0.00  0.00   0.000   0.002   29.1    49   17.3   30.1   8.86  .0717    117    1    100.0    5 
21/07/16  22:50   18.8   18.9   18.8    81   15.5   3.0   WNW   0.25   5.0   WNW   18.8   19.3   19.3  1016.4  0.00  0.00   0.000   0.002   29.1    49   17.3   30.1   8.86  .0717    117    1    100.0    5 
21/07/16  22:55   18.8   18.8   18.8    82   15.6   3.0   WNW   0.25   5.0   WNW   18.8   19.3   19.3  1016.4  0.00  0.00   0.000   0.002   29.1    49   17.3   30.1   8.86  .0718    116    1    100.0    5 
21/07/16  23:00   18.7   18.8   18.7    82   15.6   2.0   WNW   0.17   4.0   WNW   18.7   19.2   19.2  1016.4  0.00  0.00   0.000   0.001   29.1    49   17.3   30.0   8.86  .0718    115    1    100.0    5 
21/07/16  23:05   18.7   18.7   18.7    82   15.6   2.0   WNW   0.17   4.0   NNW   18.7   19.2   19.2  1016.5  0.00  0.00   0.000   0.001   29.1    49   17.3   30.0   8.86  .0718    117    1    100.0    5 
21/07/16  23:10   18.7   18.7   18.7    82   15.5   2.0    NW   0.17   4.0    NW   18.7   19.2   19.2  1016.4  0.00  0.00   0.000   0.001   29.1    49   17.3   30.1   8.86  .0718    117    1    100.0    5 
21/07/16  23:15   18.6   18.7   18.6    82   15.5   1.0    NW   0.08   4.0    NW   18.6   19.1   19.1  1016.3  0.00  0.00   0.000   0.001   29.1    49   17.3   30.0   8.86  .0718    115    1    100.0    5 
21/07/16  23:20   18.6   18.6   18.6    82   15.4   1.0   NNW   0.08   4.0   NNW   18.6   19.0   19.0  1016.4  0.00  0.00   0.000   0.001   29.1    49   17.3   30.0   8.86  .0718    117    1    100.0    5 
21/07/16  23:25   18.5   18.6   18.5    82   15.4   2.0   NNW   0.17   5.0    NW   18.5   18.9   18.9  1016.4  0.00  0.00   0.000   0.001   29.1    49   17.3   30.0   8.86  .0718    118    1    100.0    5 
21/07/16  23:30   18.5   18.6   18.5    82   15.4   1.0     N   0.08   4.0     N   18.5   18.9   18.9  1016.3  0.00  0.00   0.000   0.001   29.1    49   17.3   30.0   8.86  .0718    116    1    100.0    5 
21/07/16  23:35   18.5   18.5   18.4    83   15.6   3.0    NW   0.25   6.0   NNW   18.5   18.9   18.9  1016.3  0.00  0.00   0.000   0.001   29.0    49   17.2   29.9   8.87  .0718    117    1    100.0    5 
21/07/16  23:40   18.4   18.5   18.4    83   15.5   4.0   NNW   0.33   6.0   NNW   18.4   18.9   18.9  1016.3  0.00  0.00   0.000   0.000   29.0    49   17.2   29.9   8.87  .0718    116    1    100.0    5 
21/07/16  23:45   18.4   18.4   18.4    83   15.5   4.0   NNW   0.33   7.0   NNW   18.4   18.9   18.9  1016.3  0.00  0.00   0.000   0.000   29.0    49   17.2   29.9   8.87  .0718    116    1    100.0    5 
21/07/16  23:50   18.5   18.5   18.4    83   15.6   6.0   NNW   0.50   9.0   NNW   18.5   18.9   18.9  1016.3  0.00  0.00   0.000   0.001   29.0    49   17.2   29.9   8.87  .0718    117    1    100.0    5 
21/07/16  23:55   18.5   18.5   18.4    82   15.4   6.0   NNW   0.50  10.0     N   18.5   18.9   18.9  1016.2  0.00  0.00   0.000   0.001   29.0    49   17.2   29.9   8.87  .0718    117    1    100.0    5 
22/07/16  00:00   18.5   18.5   18.5    82   15.4   5.0   NNW   0.42  10.0   NNW   18.5   18.9   18.9  1016.2  0.00  0.00   0.000   0.001   28.9    49   17.2   29.9   8.87  .0718    117    1    100.0    5 
22/07/16   0:05   18.5   18.5   18.5    81   15.2   6.0   NNW   0.50   9.0   NNW   18.5   18.9   18.9  1016.2  0.00  0.00   0.000   0.001   28.9    49   17.2   29.9   8.87  .0718    114    1    100.0    5 
22/07/16   0:10   18.4   18.5   18.4    81   15.1   6.0   NNW   0.50  11.0   NNW   18.4   18.9   18.9  1016.2  0.00  0.00   0.000   0.000   28.9    49   17.2   29.9   8.87  .0718    117    1    100.0    5 
22/07/16   0:15   18.4   18.5   18.4    81   15.1   7.0   NNW   0.58  12.0     N   18.4   18.9   18.9  1016.2  0.00  0.00   0.000   0.000   28.9    49   17.2   29.9   8.87  .0718    116    1    100.0    5 
22/07/16   0:20   18.5   18.5   18.4    81   15.2   8.0     N   0.67  13.0     N   18.2   18.9   18.6  1016.3  0.00  0.00   0.000   0.001   28.9    49   17.2   29.9   8.87  .0718    116    1    100.0    5 
22/07/16   0:25   18.5   18.5   18.4    81   15.2   7.0     N   0.58  12.0   NNW   18.5   18.9   18.9  1016.2  0.00  0.00   0.000   0.001   28.9    49   17.1   29.8   8.87  .0718    117    1    100.0    5 
22/07/16   0:30   18.4   18.5   18.4    80   14.9   7.0   NNW   0.58  11.0   NNW   18.4   18.8   18.8  1016.2  0.00  0.00   0.000   0.000   28.9    49   17.1   29.8   8.87  .0718    117    1    100.0    5 
22/07/16   0:35   18.4   18.4   18.4    80   14.9   6.0     N   0.50  12.0     N   18.4   18.8   18.8  1016.2  0.00  0.00   0.000   0.000   28.9    49   17.1   29.8   8.87  .0718    116    1    100.0    5 
22/07/16   0:40   18.4   18.5   18.4    80   14.9   6.0     N   0.50  10.0   NNW   18.4   18.8   18.8  1016.3  0.00  0.00   0.000   0.000   28.8    49   17.1   29.7   8.87  .0718    116    1    100.0    5 
22/07/16   0:45   18.5   18.5   18.4    80   15.0   6.0   NNW   0.50  10.0    NW   18.5   18.9   18.9  1016.2  0.00  0.00   0.000   0.001   28.8    49   17.1   29.7   8.87  .0718    117    1    100.0    5 
22/07/16   0:50   18.5   18.5   18.4    80   15.0   5.0   NNW   0.42   9.0   NNW   18.5   18.9   18.9  1016.2  0.00  0.00   0.000   0.001   28.8    49   17.1   29.7   8.87  .0718    118    1    100.0    5 
22/07/16   0:55   18.6   18.6   18.5    80   15.0   6.0   NNW   0.50   9.0   NNW   18.6   19.0   19.0  1016.3  0.00  0.00   0.000   0.001   28.8    49   17.1   29.7   8.87  .0718    116    1    100.0    5 
22/07/16   1:00   18.5   18.6   18.5    80   15.0   6.0   NNW   0.50  10.0   NNW   18.5   18.9   18.9  1016.2  0.00  0.00   0.000   0.001   28.8    49   17.1   29.7   8.87  .0718    117    1    100.0    5 
22/07/16   1:05   18.5   18.6   18.5    80   15.0   6.0     N   0.50  10.0   NNW   18.5   18.9   18.9  1016.2  0.00  0.00   0.000   0.001   28.8    49   17.1   29.7   8.87  .0718    117    1    100.0    5 
22/07/16   1:10   18.5   18.5   18.5    80   15.0   6.0     N   0.50  11.0   NNW   18.5   18.9   18.9  1016.2  0.00  0.00   0.000   0.001   28.8    49   17.1   29.7   8.87  .0718    116    1    100.0    5 
22/07/16   1:15   18.5   18.5   18.4    80   15.0   6.0   NNW   0.50  10.0     N   18.5   18.9   18.9  1016.2  0.00  0.00   0.000   0.001   28.8    49   17.1   29.7   8.87  .0718    117    1    100.0    5 
22/07/16   1:20   18.4   18.5   18.4    80   14.9   6.0   NNW   0.50  12.0   NNW   18.4   18.8   18.8  1016.2  0.00  0.00   0.000   0.000   28.8    49   17.0   29.6   8.87  .0718    117    1    100.0    5 
22/07/16   1:25   18.4   18.5   18.4    79   14.7   5.0   NNW   0.42   9.0    NW   18.4   18.8   18.8  1016.2  0.00  0.00   0.000   0.000   28.8    49   17.0   29.6   8.87  .0718    117    1    100.0    5 
22/07/16   1:30   18.4   18.4   18.4    79   14.7   5.0   NNW   0.42   9.0    NW   18.4   18.8   18.8  1016.2  0.00  0.00   0.000   0.000   28.7    49   17.0   29.6   8.88  .0719    115    1    100.0    5 
22/07/16   1:35   18.4   18.4   18.4    79   14.7   6.0   NNW   0.50  10.0   NNW   18.4   18.8   18.8  1016.2  0.00  0.00   0.000   0.000   28.7    49   17.0   29.6   8.88  .0719    115    1    100.0    5 
22/07/16   1:40   18.4   18.4   18.4    79   14.7   6.0     N   0.50  10.0     N   18.4   18.7   18.7  1016.3  0.00  0.00   0.000   0.000   28.7    49   17.0   29.6   8.88  .0719    117    1    100.0    5 
22/07/16   1:45   18.3   18.4   18.3    79   14.6   7.0   NNW   0.58  11.0   NNW   18.3   18.7   18.7  1016.2  0.00  0.00   0.000   0.000   28.7    49   17.0   29.6   8.88  .0719    117    1    100.0    5 
22/07/16   1:50   18.3   18.4   18.3    80   14.8   6.0   NNW   0.50  12.0   NNW   18.3   18.7   18.7  1016.2  0.00  0.00   0.000   0.000   28.7    49   16.9   29.4   8.88  .0719    117    1    100.0    5 
22/07/16   1:55   18.3   18.3   18.3    80   14.8   6.0   NNW   0.50  11.0   NNW   18.3   18.7   18.7  1016.1  0.00  0.00   0.000   0.000   28.7    49   17.0   29.6   8.88  .0719    116    1    100.0    5 
22/07/16   2:00   18.3   18.3   18.3    80   14.8   6.0   NNW   0.50  11.0   NNW   18.3   18.7   18.7  1016.1  0.00  0.00   0.000   0.000   28.7    49   16.9   29.4   8.88  .0719    117    1    100.0    5 
22/07/16   2:05   18.3   18.3   18.3    80   14.8   6.0   NNW   0.50  10.0     N   18.3   18.7   18.7  1016.1  0.00  0.00   0.000   0.000   28.7    49   16.9   29.4   8.88  .0719    117    1    100.0    5 
22/07/16   2:10   18.3   18.3   18.3    79   14.6   6.0   NNW   0.50  10.0    NW   18.3   18.6   18.6  1016.1  0.00  0.00   0.000   0.000   28.7    49   16.9   29.4   8.88  .0719    116    1    100.0    5 
22/07/16   2:15   18.3   18.3   18.3    79   14.6   6.0   NNW   0.50  11.0     N   18.3   18.6   18.6  1016.1  0.00  0.00   0.000   0.000   28.6    49   16.8   29.4   8.88  .0719    117    1    100.0    5 
22/07/16   2:20   18.3   18.3   18.3    79   14.6   7.0     N   0.58  13.0     N   18.3   18.6   18.6  1016.0  0.00  0.00   0.000   0.000   28.6    49   16.8   29.4   8.88  .0719    117    1    100.0    5 
22/07/16   2:25   18.2   18.3   18.2    80   14.7   6.0     N   0.50  11.0     N   18.2   18.6   18.6  1015.9  0.00  0.00   0.000   0.000   28.6    49   16.8   29.4   8.88  .0719    116    1    100.0    5 
22/07/16   2:30   18.2   18.3   18.2    80   14.7   6.0     N   0.50   9.0   NNW   18.2   18.6   18.6  1015.9  0.00  0.00   0.000   0.000   28.6    49   16.8   29.4   8.88  .0719    117    1    100.0    5 
22/07/16   2:35   18.2   18.2   18.2    80   14.7   7.0     N   0.58  11.0    NW   18.2   18.6   18.6  1015.8  0.00  0.00   0.000   0.000   28.6    49   16.8   29.3   8.88  .0719    115    1    100.0    5 
22/07/16   2:40   18.2   18.2   18.2    80   14.7   7.0     N   0.58  12.0     N   18.2   18.5   18.5  1015.9  0.00  0.00   0.001   0.000   28.6    49   16.8   29.3   8.88  .0719    116    1    100.0    5 
22/07/16   2:45   18.2   18.2   18.2    80   14.7   7.0     N   0.58  12.0   NNW   18.2   18.5   18.5  1015.8  0.00  0.00   0.001   0.000   28.6    49   16.8   29.3   8.88  .0719    117    1    100.0    5 
22/07/16   2:50   18.2   18.2   18.2    80   14.7   7.0     N   0.58  10.0     N   18.2   18.5   18.5  1015.8  0.00  0.00   0.001   0.000   28.6    49   16.8   29.3   8.88  .0719    117    1    100.0    5 
22/07/16   2:55   18.2   18.2   18.1    80   14.7   7.0     N   0.58  11.0     N   18.2   18.5   18.5  1015.7  0.00  0.00   0.001   0.000   28.5    49   16.7   29.2   8.88  .0719    117    1    100.0    5 
22/07/16   3:00   18.1   18.2   18.1    80   14.6   7.0     N   0.58  11.0     N   18.1   18.4   18.4  1015.7  0.00  0.00   0.001   0.000   28.5    49   16.7   29.2   8.88  .0719    117    1    100.0    5 
22/07/16   3:05   18.1   18.1   18.1    80   14.6   7.0     N   0.58  11.0     N   18.1   18.4   18.4  1015.6  0.00  0.00   0.001   0.000   28.5    49   16.7   29.2   8.88  .0719    116    1    100.0    5 
22/07/16   3:10   18.1   18.1   18.1    80   14.6   6.0     N   0.50  10.0   NNW   18.1   18.4   18.4  1015.6  0.00  0.00   0.001   0.000   28.4    49   16.7   29.1   8.89  .0719    117    1    100.0    5 
22/07/16   3:15   18.1   18.1   18.0    81   14.7   7.0     N   0.58  13.0     N   18.1   18.4   18.4  1015.5  0.00  0.00   0.001   0.000   28.4    49   16.7   29.1   8.89  .0719    117    1    100.0    5 
22/07/16   3:20   18.0   18.1   18.0    81   14.7   7.0     N   0.58  11.0   NNW   18.0   18.3   18.3  1015.5  0.00  0.00   0.001   0.000   28.4    49   16.7   29.1   8.89  .0719    117    1    100.0    5 
22/07/16   3:25   18.0   18.0   18.0    81   14.7   7.0     N   0.58  11.0   NNW   18.0   18.3   18.3  1015.6  0.00  0.00   0.001   0.000   28.4    49   16.7   29.1   8.89  .0719    117    1    100.0    5 
22/07/16   3:30   17.9   18.0   17.9    81   14.6   5.0     N   0.42   8.0   NNW   17.9   18.3   18.3  1015.5  0.00  0.00   0.001   0.000   28.4    49   16.7   29.1   8.89  .0719    117    1    100.0    5 
22/07/16   3:35   17.9   17.9   17.9    81   14.6   7.0     N   0.58  10.0   NNW   17.9   18.3   18.3  1015.5  0.00  0.00   0.001   0.000   28.4    49   16.6   29.0   8.89  .0719    117    1    100.0    5 
22/07/16   3:40   17.9   17.9   17.9    81   14.6   7.0     N   0.58  11.0     N   17.9   18.3   18.3  1015.5  0.00  0.00   0.001   0.000   28.4    49   16.6   29.0   8.89  .0719    115    1    100.0    5 
22/07/16   3:45   17.9   17.9   17.9    81   14.6   6.0     N   0.50  12.0     N   17.9   18.3   18.3  1015.5  0.00  0.00   0.001   0.000   28.4    49   16.6   29.0   8.89  .0719    116    1    100.0    5 
22/07/16   3:50   17.9   17.9   17.9    81   14.6   7.0     N   0.58  10.0   NNE   17.9   18.3   18.3  1015.5  0.00  0.00   0.001   0.000   28.3    49   16.6   28.9   8.89  .0719    117    1    100.0    5 
22/07/16   3:55   17.9   17.9   17.9    82   14.8   7.0     N   0.58  10.0     N   17.9   18.3   18.3  1015.5  0.00  0.00   0.001   0.000   28.3    49   16.6   28.9   8.89  .0719    117    1    100.0    5 
22/07/16   4:00   17.9   17.9   17.9    82   14.8   7.0     N   0.58  12.0     N   17.9   18.3   18.3  1015.5  0.00  0.00   0.001   0.000   28.3    49   16.6   28.9   8.89  .0719    118    1    100.0    5 
22/07/16   4:05   17.9   17.9   17.9    82   14.8   7.0     N   0.58  10.0     N   17.9   18.2   18.2  1015.5  0.00  0.00   0.002   0.000   28.3    49   16.6   28.9   8.89  .0719    116    1    100.0    5 
22/07/16   4:10   17.9   17.9   17.9    82   14.8   6.0     N   0.50  11.0     N   17.9   18.2   18.2  1015.6  0.00  0.00   0.002   0.000   28.3    49   16.6   28.9   8.89  .0719    116    1    100.0    5 
22/07/16   4:15   17.9   17.9   17.9    82   14.8   7.0     N   0.58  11.0     N   17.9   18.2   18.2  1015.6  0.00  0.00   0.002   0.000   28.3    49   16.5   28.8   8.89  .0720    117    1    100.0    5 
22/07/16   4:20   17.8   17.9   17.8    82   14.7   8.0     N   0.67  13.0     N   17.4   18.2   17.7  1015.6  0.00  0.00   0.002   0.000   28.3    49   16.5   28.8   8.89  .0720    116    1    100.0    5 
22/07/16   4:25   17.8   17.9   17.8    83   14.9   7.0     N   0.58  11.0     N   17.8   18.2   18.2  1015.6  0.00  0.00   0.002   0.000   28.3    49   16.5   28.8   8.89  .0720    116    1    100.0    5 
22/07/16   4:30   17.8   17.8   17.8    83   14.9   6.0     N   0.50   9.0     N   17.8   18.2   18.2  1015.6  0.00  0.00   0.002   0.000   28.2    49   16.5   28.7   8.89  .0720    117    1    100.0    5 
22/07/16   4:35   17.8   17.8   17.8    83   14.9   5.0     N   0.42  10.0     N   17.8   18.2   18.2  1015.7  0.00  0.00   0.002   0.000   28.2    49   16.5   28.7   8.89  .0720    117    1    100.0    5 
22/07/16   4:40   17.8   17.8   17.8    83   14.9   5.0     N   0.42   8.0     N   17.8   18.1   18.1  1015.7  0.00  0.00   0.002   0.000   28.2    49   16.5   28.7   8.89  .0720    117    1    100.0    5 
22/07/16   4:45   17.8   17.8   17.8    83   14.9   5.0   NNW   0.42   9.0   NNW   17.8   18.1   18.1  1015.8  0.00  0.00   0.002   0.000   28.2    49   16.5   28.7   8.89  .0720    115    1    100.0    5 
22/07/16   4:50   17.8   17.8   17.8    84   15.0   6.0   NNW   0.50   8.0   NNW   17.8   18.1   18.1  1015.7  0.00  0.00   0.002   0.000   28.2    49   16.4   28.7   8.90  .0720    117    1    100.0    5 
22/07/16   4:55   17.8   17.8   17.8    84   15.0   4.0   NNW   0.33   7.0     N   17.8   18.1   18.1  1015.7  0.00  0.00   0.002   0.000   28.2    49   16.4   28.7   8.90  .0720    116    1    100.0    5 
22/07/16   5:00   17.8   17.8   17.8    84   15.0   4.0   NNW   0.33   8.0   NNW   17.8   18.1   18.1  1015.7  0.00  0.00   0.002   0.000   28.2    49   16.4   28.7   8.90  .0720    117    1    100.0    5 
22/07/16   5:05   17.8   17.8   17.7    84   15.0   4.0     N   0.33   7.0     N   17.8   18.1   18.1  1015.7  0.00  0.00   0.002   0.000   28.2    49   16.4   28.7   8.90  .0720    117    1    100.0    5 
22/07/16   5:10   17.7   17.8   17.7    85   15.2   5.0     N   0.42   9.0   NNE   17.7   18.1   18.1  1015.7  0.00  0.00   0.002   0.000   28.2    49   16.4   28.7   8.90  .0720    116    1    100.0    5 
22/07/16   5:15   17.7   17.7   17.7    85   15.1   5.0     N   0.42   9.0     N   17.7   18.0   18.0  1015.7  0.00  0.00   0.002   0.000   28.1    49   16.4   28.6   8.90  .0720    117    1    100.0    5 
22/07/16   5:20   17.7   17.7   17.7    85   15.1   4.0     N   0.33   7.0     N   17.7   18.0   18.0  1015.8  0.00  0.00   0.002   0.000   28.1    49   16.4   28.6   8.90  .0720    116    1    100.0    5 
22/07/16   5:25   17.6   17.7   17.6    85   15.1   5.0     N   0.42   9.0   NNE   17.6   17.9   17.9  1015.8  0.00  0.00   0.003   0.000   28.1    49   16.4   28.6   8.90  .0720    116    1    100.0    5 
22/07/16   5:30   17.6   17.6   17.6    85   15.0   6.0   NNE   0.50   9.0     N   17.6   17.9   17.9  1015.8  0.00  0.00   0.003   0.000   28.1    49   16.4   28.6   8.90  .0720    117    1    100.0    5 
22/07/16   5:35   17.6   17.6   17.6    86   15.2   5.0     N   0.42   8.0     N   17.6   17.9   17.9  1015.8  0.00  0.00   0.003   0.000   28.1    49   16.3   28.5   8.90  .0720    117    1    100.0    5 
22/07/16   5:40   17.5   17.6   17.5    86   15.1   4.0     N   0.33   6.0     N   17.5   17.8   17.8  1015.8  0.00  0.00   0.003   0.000   28.1    49   16.3   28.5   8.90  .0720    116    1    100.0    5 
22/07/16   5:45   17.5   17.5   17.5    86   15.1   4.0   NNE   0.33   8.0     N   17.5   17.8   17.8  1015.8  0.00  0.00   0.003   0.000   28.1    49   16.3   28.5   8.90  .0720    117    1    100.0    5 
22/07/16   5:50   17.5   17.5   17.5    86   15.1   5.0     N   0.42   8.0   NNE   17.5   17.8   17.8  1015.8  0.00  0.00   0.003   0.000   28.0    49   16.3   28.4   8.90  .0721    117    1    100.0    5 
22/07/16   5:55   17.5   17.5   17.5    87   15.3   5.0     N   0.42   8.0     N   17.5   17.8   17.8  1015.8  0.00  0.00   0.003   0.000   28.0    49   16.3   28.4   8.90  .0721    117    1    100.0    5 
22/07/16   6:00   17.5   17.5   17.5    87   15.3   4.0     N   0.33   7.0   NNW   17.5   17.8   17.8  1015.9  0.00  0.00   0.003   0.000   28.0    49   16.3   28.4   8.90  .0721    117    1    100.0    5 
22/07/16   6:05   17.6   17.6   17.5    87   15.4   4.0     N   0.33   7.0     N   17.6   17.9   17.9  1015.9  0.00  0.00   0.003   0.000   28.0    49   16.3   28.4   8.90  .0721    117    1    100.0    5 
22/07/16   6:10   17.6   17.6   17.6    87   15.4   4.0     N   0.33   7.0   NNE   17.6   17.9   17.9  1015.9  0.00  0.00   0.003   0.000   28.0    49   16.3   28.4   8.90  .0721    117    1    100.0    5 
22/07/16   6:15   17.6   17.6   17.6    87   15.4   3.0     N   0.25   6.0     N   17.6   17.9   17.9  1015.9  0.00  0.00   0.003   0.000   27.9    49   16.2   28.3   8.90  .0721    116    1    100.0    5 
22/07/16   6:20   17.6   17.7   17.6    87   15.4   3.0     N   0.25   6.0   NNE   17.6   17.9   17.9  1015.9  0.00  0.00   0.003   0.000   27.9    49   16.2   28.3   8.90  .0721    117    1    100.0    5 
22/07/16   6:25   17.7   17.7   17.6    88   15.7   4.0     N   0.33   7.0   NNE   17.7   18.1   18.1  1016.0  0.00  0.00   0.002   0.000   27.9    49   16.2   28.3   8.90  .0721    117    1    100.0    5 
22/07/16   6:30   17.8   17.8   17.7    88   15.8   4.0     N   0.33   8.0     N   17.8   18.2   18.2  1016.0  0.00  0.00   0.002   0.000   27.9    49   16.2   28.3   8.90  .0721    117    1    100.0    5 
22/07/16   6:35   17.9   17.9   17.8    88   15.9   5.0     N   0.42  10.0   NNE   17.9   18.3   18.3  1016.0  0.00  0.00   0.002   0.000   27.9    49   16.2   28.2   8.91  .0721    117    1    100.0    5 
22/07/16   6:40   18.0   18.0   17.9    88   16.0   5.0     N   0.42   9.0   NNE   18.0   18.4   18.4  1016.0  0.00  0.00   0.001   0.000   27.9    49   16.2   28.2   8.91  .0721    117    1    100.0    5 
22/07/16   6:45   18.1   18.1   17.9    88   16.0   4.0     N   0.33   7.0   NNE   18.1   18.5   18.5  1016.1  0.00  0.00   0.001   0.000   27.9    49   16.2   28.2   8.91  .0721    117    1    100.0    5 
22/07/16   6:50   18.1   18.1   18.1    88   16.1   5.0     N   0.42   8.0     N   18.1   18.6   18.6  1016.1  0.00  0.00   0.001   0.000   27.9    50   16.5   28.3   9.11  .0721    117    1    100.0    5 
22/07/16   6:55   18.2   18.2   18.1    88   16.1   5.0   NNE   0.42   8.0   NNE   18.2   18.7   18.7  1016.1  0.00  0.00   0.001   0.000   27.9    50   16.5   28.3   9.11  .0721    117    1    100.0    5 
22/07/16   7:00   18.2   18.2   18.2    88   16.2   5.0   NNE   0.42   9.0   NNE   18.2   18.7   18.7  1016.2  0.00  0.00   0.000   0.000   27.9    50   16.5   28.3   9.11  .0721    116    1    100.0    5 
22/07/16   7:05   18.3   18.3   18.2    87   16.1   4.0   NNE   0.33   9.0   NNE   18.3   18.8   18.8  1016.2  0.00  0.00   0.000   0.000   27.9    50   16.5   28.3   9.11  .0721    116    1    100.0    5 
22/07/16   7:10   18.3   18.3   18.3    88   16.3   5.0   NNE   0.42   9.0   NNE   18.3   18.8   18.8  1016.3  0.00  0.00   0.000   0.000   27.8    50   16.5   28.2   9.11  .0721    117    1    100.0    5 
22/07/16   7:15   18.3   18.4   18.3    87   16.1   4.0   NNE   0.33   7.0   NNE   18.3   18.8   18.8  1016.4  0.00  0.00   0.000   0.000   27.8    50   16.5   28.2   9.11  .0721    116    1    100.0    5 
22/07/16   7:20   18.4   18.4   18.3    87   16.2   4.0   NNE   0.33   8.0   NNE   18.4   18.9   18.9  1016.4  0.00  0.00   0.000   0.000   27.8    50   16.5   28.2   9.11  .0721    117    1    100.0    5 
22/07/16   7:25   18.4   18.4   18.4    87   16.2   4.0   NNE   0.33   7.0   NNE   18.4   18.9   18.9  1016.5  0.00  0.00   0.000   0.000   27.8    50   16.5   28.2   9.11  .0721    117    1    100.0    5 
22/07/16   7:30   18.4   18.4   18.4    87   16.2   4.0    NE   0.33   7.0   NNE   18.4   18.9   18.9  1016.5  0.00  0.00   0.000   0.000   27.8    50   16.5   28.2   9.11  .0721    117    1    100.0    5 
22/07/16   7:35   18.4   18.4   18.4    87   16.2   3.0    NE   0.25   6.0    NE   18.4   18.9   18.9  1016.7  0.00  0.00   0.000   0.000   27.8    50   16.5   28.2   9.11  .0721    116    1    100.0    5 
22/07/16   7:40   18.4   18.4   18.4    87   16.2   3.0    NE   0.25   8.0   NNE   18.4   18.9   18.9  1016.6  0.00  0.00   0.000   0.000   27.8    50   16.4   28.1   9.11  .0722    117    1    100.0    5 
22/07/16   7:45   18.5   18.5   18.4    87   16.3   4.0    NE   0.33   7.0    NE   18.5   19.1   19.1  1016.7  0.00  0.00   0.000   0.001   27.8    50   16.4   28.1   9.11  .0722    116    1    100.0    5 
22/07/16   7:50   18.5   18.5   18.4    87   16.3   4.0    NE   0.33   8.0    NE   18.5   19.1   19.1  1016.7  0.00  0.00   0.000   0.001   27.8    50   16.4   28.1   9.11  .0722    114    1    100.0    5 
22/07/16   7:55   18.6   18.6   18.5    87   16.3   3.0    NE   0.25   8.0    NE   18.6   19.1   19.1  1016.7  0.00  0.00   0.000   0.001   27.8    50   16.4   28.1   9.11  .0722    117    1    100.0    5 
22/07/16   8:00   18.6   18.6   18.6    87   16.4   5.0   NNE   0.42   8.0   ENE   18.6   19.2   19.2  1016.8  0.00  0.00   0.000   0.001   27.8    50   16.4   28.1   9.11  .0722    117    1    100.0    5 
22/07/16   8:05   18.7   18.7   18.6    87   16.5   5.0    NE   0.42  10.0   NNE   18.7   19.2   19.2  1016.8  0.00  0.00   0.000   0.001   27.8    50   16.4   28.1   9.11  .0722    116    1    100.0    5 
22/07/16   8:10   18.8   18.8   18.7    87   16.6   4.0    NE   0.33   9.0   NNE   18.8   19.4   19.4  1016.9  0.00  0.00   0.000   0.002   27.8    50   16.4   28.1   9.11  .0722    117    1    100.0    5 
22/07/16   8:15   18.8   18.8   18.8    87   16.6   5.0   NNE   0.42   8.0   NNE   18.8   19.4   19.4  1016.9  0.00  0.00   0.000   0.002   27.8    50   16.4   28.1   9.11  .0722    118    1    100.0    5 
22/07/16   8:20   19.0   19.0   18.8    87   16.8   3.0   NNE   0.25   7.0   NNE   19.0   19.7   19.7  1016.9  0.00  0.00   0.000   0.002   27.8    50   16.4   28.1   9.11  .0722    117    1    100.0    5 
22/07/16   8:25   19.1   19.1   19.0    87   16.9   4.0   NNE   0.33   7.0   NNE   19.1   19.8   19.8  1017.1  0.00  0.00   0.000   0.003   27.8    50   16.4   28.1   9.11  .0722    117    1    100.0    5 
22/07/16   8:30   19.2   19.2   19.1    87   17.0   3.0    NE   0.25   7.0   NNE   19.2   19.9   19.9  1017.1  0.00  0.00   0.000   0.003   27.7    50   16.4   28.1   9.11  .0722    117    1    100.0    5 
22/07/16   8:35   19.3   19.3   19.2    87   17.1   4.0   NNE   0.33   8.0   NNE   19.3   20.1   20.1  1017.1  0.00  0.00   0.000   0.003   27.8    50   16.4   28.1   9.11  .0722    117    1    100.0    5 
22/07/16   8:40   19.4   19.4   19.3    86   17.0   2.0   NNE   0.17   5.0   NNE   19.4   20.1   20.1  1017.2  0.00  0.00   0.000   0.004   27.8    50   16.4   28.1   9.11  .0722    116    1    100.0    5 
22/07/16   8:45   19.5   19.6   19.4    86   17.1   1.0     N   0.08   4.0     N   19.5   20.3   20.3  1017.2  0.00  0.00   0.000   0.004   27.8    50   16.4   28.1   9.11  .0722    117    1    100.0    5 
22/07/16   8:50   19.7   19.7   19.6    86   17.3   2.0     N   0.17   6.0   NNE   19.7   20.5   20.5  1017.1  0.00  0.00   0.000   0.005   27.8    50   16.4   28.1   9.11  .0722    116    1    100.0    5 
22/07/16   8:55   19.9   19.9   19.7    86   17.5   1.0   NNE   0.08   3.0   NNE   19.9   20.7   20.7  1017.1  0.00  0.00   0.000   0.005   27.8    50   16.4   28.1   9.11  .0722    117    1    100.0    5 
22/07/16   9:00   20.1   20.1   19.9    86   17.6   3.0   NNE   0.25   5.0   NNE   20.1   20.9   20.9  1017.1  0.00  0.00   0.000   0.006   27.8    50   16.4   28.1   9.11  .0722    116    1    100.0    5 
22/07/16   9:05   20.2   20.2   20.1    85   17.6   3.0    NE   0.25   5.0    NE   20.2   21.1   21.1  1017.1  0.00  0.00   0.000   0.006   27.8    50   16.5   28.2   9.11  .0722    117    1    100.0    5 
22/07/16   9:10   20.3   20.3   20.2    85   17.7   1.0    NE   0.08   4.0    NE   20.3   21.3   21.3  1017.1  0.00  0.00   0.000   0.007   27.8    50   16.4   28.1   9.11  .0722    117    1    100.0    5 
22/07/16   9:15   20.5   20.5   20.3    85   17.9   0.0    NE   0.00   2.0    NE   20.5   21.5   21.5  1017.1  0.00  0.00   0.000   0.008   27.8    50   16.5   28.2   9.11  .0722    118    1    100.0    5 
22/07/16   9:20   20.8   20.8   20.6    85   18.2   1.0    NE   0.08   3.0    NE   20.8   21.8   21.8  1017.0  0.00  0.00   0.000   0.009   27.8    50   16.5   28.2   9.11  .0722    116    1    100.0    5 
22/07/16   9:25   21.2   21.2   20.8    85   18.5   2.0    NE   0.17   5.0   ENE   21.2   22.0   22.0  1017.0  0.00  0.00   0.000   0.010   27.8    50   16.5   28.2   9.11  .0722    117    1    100.0    5 
22/07/16   9:30   21.4   21.4   21.2    83   18.4   2.0   ESE   0.17   4.0     E   21.4   22.2   22.2  1017.0  0.00  0.00   0.000   0.011   27.9    50   16.5   28.3   9.11  .0722    116    1    100.0    5 
22/07/16   9:35   21.6   21.6   21.4    83   18.6   3.0   ESE   0.25   5.0   ESE   21.6   22.5   22.5  1017.0  0.00  0.00   0.000   0.011   27.9    50   16.5   28.3   9.11  .0722    117    1    100.0    5 
22/07/16   9:40   21.9   21.9   21.7    82   18.7   4.0   ESE   0.33   7.0   ESE   21.9   22.7   22.7  1017.0  0.00  0.00   0.000   0.012   27.9    50   16.5   28.3   9.11  .0722    115    1    100.0    5 
22/07/16   9:45   22.1   22.1   21.9    81   18.6   5.0   ESE   0.42   7.0   ESE   22.1   22.9   22.9  1017.0  0.00  0.00   0.000   0.013   27.9    50   16.5   28.3   9.11  .0722    116    1    100.0    5 
22/07/16   9:50   22.2   22.2   22.1    80   18.6   5.0   ESE   0.42   7.0   ESE   22.2   22.9   22.9  1017.0  0.00  0.00   0.000   0.013   27.9    50   16.6   28.4   9.10  .0721    117    1    100.0    5 
22/07/16   9:55   22.3   22.3   22.2    79   18.5   4.0   ESE   0.33   7.0   ESE   22.3   23.1   23.1  1017.0  0.00  0.00   0.000   0.014   27.9    50   16.6   28.4   9.10  .0721    117    1    100.0    5 
22/07/16  10:00   22.4   22.4   22.3    78   18.4   3.0   ESE   0.25   5.0    SE   22.4   23.2   23.2  1017.0  0.00  0.00   0.000   0.014   28.0    50   16.6   28.4   9.10  .0721    117    1    100.0    5 
22/07/16  10:05   22.6   22.6   22.4    78   18.6   3.0   ESE   0.25   5.0   ESE   22.6   23.4   23.4  1017.1  0.00  0.00   0.000   0.015   28.0    50   16.6   28.4   9.10  .0721    117    1    100.0    5 
22/07/16  10:10   22.7   22.7   22.6    77   18.5   3.0    SE   0.25   4.0    SE   22.7   23.6   23.6  1017.0  0.00  0.00   0.000   0.015   28.0    51   16.9   28.6   9.30  .0721    116    1    100.0    5 
22/07/16  10:15   22.8   22.8   22.7    77   18.5   3.0    SE   0.25   5.0    SE   22.8   23.7   23.7  1017.1  0.00  0.00   0.000   0.015   28.0    51   16.9   28.6   9.30  .0721    115    1    100.0    5 
22/07/16  10:20   22.6   22.8   22.6    76   18.2   3.0    SE   0.25   5.0    SE   22.6   23.4   23.4  1017.1  0.00  0.00   0.000   0.015   28.1    51   17.0   28.7   9.30  .0721    118    1    100.0    5 
22/07/16  10:25   22.2   22.6   22.2    76   17.8   4.0   SSE   0.33   5.0   SSE   22.2   22.8   22.8  1017.1  0.00  0.00   0.000   0.014   28.1    51   17.0   28.7   9.30  .0721    116    1    100.0    5 
22/07/16  10:30   22.2   22.3   22.2    77   18.0   4.0   SSE   0.33   5.0   SSE   22.2   22.9   22.9  1017.1  0.00  0.00   0.000   0.014   28.1    51   17.0   28.7   9.30  .0721    117    1    100.0    5 
22/07/16  10:35   22.2   22.3   22.2    77   17.9   4.0   SSE   0.33   6.0   SSE   22.2   22.8   22.8  1017.2  0.00  0.00   0.000   0.013   28.2    51   17.1   28.8   9.30  .0721    116    1    100.0    5 
22/07/16  10:40   22.0   22.2   22.0    77   17.8   4.0   SSE   0.33   6.0   SSE   22.0   22.6   22.6  1017.3  0.00  0.00   0.000   0.013   28.2    51   17.1   28.8   9.30  .0721    116    1    100.0    5 
22/07/16  10:45   21.7   22.0   21.7    77   17.5   5.0     S   0.42   6.0     S   21.7   22.2   22.2  1017.2  0.00  0.00   0.000   0.012   28.2    51   17.1   28.9   9.29  .0720    116    1    100.0    5 
22/07/16  10:50   21.4   21.7   21.4    79   17.6   5.0     S   0.42   6.0     S   21.4   22.0   22.0  1017.3  0.00  0.00   0.000   0.011   28.2    51   17.1   28.9   9.29  .0720    117    1    100.0    5 
22/07/16  10:55   21.2   21.3   21.2    79   17.4   5.0     S   0.42   7.0     S   21.2   21.7   21.7  1017.2  0.00  0.00   0.000   0.010   28.2    51   17.1   28.9   9.29  .0720    117    1    100.0    5 
22/07/16  11:00   21.2   21.2   21.2    79   17.4   5.0     S   0.42   7.0     S   21.2   21.7   21.7  1017.3  0.00  0.00   0.000   0.010   28.2    51   17.1   28.9   9.29  .0720    117    1    100.0    5 
22/07/16  11:05   20.9   21.2   20.9    79   17.2   6.0     S   0.50   7.0     S   20.9   21.6   21.6  1017.3  0.00  0.00   0.000   0.009   28.2    51   17.1   28.9   9.29  .0720    117    1    100.0    5 
22/07/16  11:10   21.0   21.0   20.9    81   17.6   6.0     S   0.50   7.0     S   21.0   21.7   21.7  1017.3  0.00  0.00   0.000   0.009   28.2    52   17.4   29.0   9.39  .0720    116    1    100.0    5 
22/07/16  11:15   21.1   21.1   21.0    81   17.7   5.0   SSE   0.42   7.0   SSE   21.1   21.8   21.8  1017.3  0.00  0.00   0.000   0.010   28.2    52   17.4   29.0   9.39  .0720    117    1    100.0    5 
22/07/16  11:20   21.2   21.2   21.1    81   17.8   6.0     S   0.50   7.0   SSE   21.2   21.9   21.9  1017.3  0.00  0.00   0.000   0.010   28.2    52   17.4   29.0   9.39  .0720    118    1    100.0    5 
22/07/16  11:25   21.2   21.2   21.2    80   17.6   5.0     S   0.42   7.0     S   21.2   21.8   21.8  1017.4  0.00  0.00   0.000   0.010   28.2    52   17.4   29.0   9.39  .0720    115    1    100.0    5 
22/07/16  11:30   21.3   21.3   21.2    81   17.9   6.0     S   0.50   7.0     S   21.3   21.9   21.9  1017.4  0.00  0.00   0.000   0.010   28.3    52   17.5   29.1   9.39  .0720    117    1    100.0    5 
22/07/16  11:35   21.1   21.3   21.1    79   17.3   5.0     S   0.42   7.0     S   21.1   21.6   21.6  1017.3  0.00  0.00   0.000   0.009   28.3    52   17.5   29.1   9.39  .0720    117    1    100.0    5 
22/07/16  11:40   20.7   21.1   20.7    79   16.9   5.0     S   0.42   6.0     S   20.7   21.4   21.4  1017.4  0.00  0.00   0.000   0.008   28.3    52   17.5   29.1   9.39  .0720    117    1    100.0    5 
22/07/16  11:45   20.5   20.7   20.5    81   17.1   5.0     S   0.42   7.0     S   20.5   21.3   21.3  1017.4  0.00  0.00   0.000   0.008   28.3    52   17.5   29.1   9.39  .0720    117    1    100.0    5 
22/07/16  11:50   20.3   20.5   20.3    81   16.9   5.0     S   0.42   7.0     S   20.3   21.1   21.1  1017.4  0.00  0.00   0.000   0.007   28.3    52   17.5   29.1   9.39  .0720    116    1    100.0    5 
22/07/16  11:55   20.1   20.3   20.1    82   16.9   5.0     S   0.42   6.0     S   20.1   20.9   20.9  1017.4  0.00  0.00   0.000   0.006   28.3    52   17.5   29.1   9.39  .0720    115    1    100.0    5 
22/07/16  12:00   19.9   20.1   19.9    82   16.7   5.0     S   0.42   6.0     S   19.9   20.6   20.6  1017.5  0.00  0.00   0.000   0.005   28.3    52   17.5   29.1   9.39  .0720    115    1    100.0    5 
22/07/16  12:05   19.8   19.9   19.8    83   16.8   5.0     S   0.42   7.0     S   19.8   20.5   20.5  1017.6  0.00  0.00   0.000   0.005   28.3    52   17.5   29.1   9.39  .0720    117    1    100.0    5 
22/07/16  12:10   19.7   19.8   19.7    83   16.8   4.0     S   0.33   6.0     S   19.7   20.4   20.4  1017.5  0.00  0.00   0.000   0.005   28.3    52   17.5   29.1   9.39  .0720    117    1    100.0    5 
22/07/16  12:15   19.7   19.7   19.7    83   16.7   5.0     S   0.42   7.0     S   19.7   20.4   20.4  1017.5  0.00  0.00   0.000   0.005   28.3    52   17.5   29.1   9.39  .0720    117    1    100.0    5 
22/07/16  12:20   19.6   19.7   19.6    83   16.6   6.0     S   0.50   7.0     S   19.6   20.3   20.3  1017.6  0.00  0.00   0.000   0.004   28.2    52   17.4   29.0   9.39  .0720    116    1    100.0    5 
22/07/16  12:25   19.6   19.6   19.6    83   16.6   6.0     S   0.50   7.0     S   19.6   20.3   20.3  1017.6  0.00  0.00   0.000   0.004   28.2    52   17.4   29.0   9.39  .0720    118    1    100.0    5 
22/07/16  12:30   19.6   19.6   19.5    84   16.8   6.0     S   0.50   7.0     S   19.6   20.3   20.3  1017.6  0.00  0.00   0.000   0.004   28.2    52   17.4   29.0   9.39  .0720    117    1    100.0    5 
22/07/16  12:35   19.4   19.6   19.4    84   16.7   6.0     S   0.50   7.0     S   19.4   20.2   20.2  1017.7  0.00  0.00   0.000   0.004   28.2    52   17.4   29.0   9.39  .0720    117    1    100.0    5 
22/07/16  12:40   19.4   19.5   19.4    84   16.6   5.0     S   0.42   6.0     S   19.4   20.1   20.1  1017.7  0.00  0.00   0.000   0.004   28.2    52   17.4   29.0   9.39  .0720    117    1    100.0    5 
22/07/16  12:45   19.4   19.4   19.4    84   16.7   5.0     S   0.42   6.0     S   19.4   20.2   20.2  1017.7  0.00  0.00   0.000   0.004   28.2    52   17.4   28.9   9.40  .0721    117    1    100.0    5 
22/07/16  12:50   19.4   19.4   19.4    84   16.6   4.0     S   0.33   5.0     S   19.4   20.1   20.1  1017.9  0.00  0.00   0.000   0.004   28.2    52   17.4   28.9   9.40  .0721    117    1    100.0    5 
22/07/16  12:55   19.4   19.4   19.4    84   16.7   4.0   SSW   0.33   5.0     S   19.4   20.2   20.2  1017.9  0.00  0.00   0.000   0.004   28.2    52   17.4   28.9   9.40  .0721    117    1    100.0    5 
22/07/16  13:00   19.4   19.4   19.4    84   16.7   4.0   SSW   0.33   6.0     S   19.4   20.2   20.2  1017.9  0.00  0.00   0.000   0.004   28.2    52   17.4   28.9   9.40  .0721    117    1    100.0    5 
22/07/16  13:05   19.4   19.5   19.4    84   16.7   5.0     S   0.42   6.0   SSW   19.4   20.2   20.2  1017.9  0.00  0.00   0.000   0.004   28.2    52   17.4   28.9   9.40  .0721    117    1    100.0    5 
22/07/16  13:10   19.5   19.5   19.4    84   16.7   5.0     S   0.42   6.0     S   19.5   20.2   20.2  1017.9  0.00  0.00   0.000   0.004   28.2    52   17.4   28.9   9.40  .0721    117    1    100.0    5 
22/07/16  13:15   19.6   19.6   19.5    84   16.8   5.0   SSW   0.42   6.0     S   19.6   20.3   20.3  1017.8  0.00  0.00   0.000   0.004   28.1    52   17.3   28.8   9.40  .0721    117    1    100.0    5 
22/07/16  13:20   19.7   19.7   19.6    84   16.9   4.0     S   0.33   6.0     S   19.7   20.5   20.5  1017.7  0.00  0.00   0.000   0.005   28.1    52   17.3   28.8   9.40  .0721    116    1    100.0    5 
22/07/16  13:25   19.8   19.8   19.7    83   16.9   5.0   SSW   0.42   6.0   SSW   19.8   20.6   20.6  1017.9  0.00  0.00   0.000   0.005   28.1    52   17.3   28.8   9.40  .0721    117    1    100.0    5 
22/07/16  13:30   19.7   19.8   19.7    83   16.8   5.0   SSW   0.42   6.0   SSW   19.7   20.4   20.4  1017.9  0.00  0.00   0.000   0.005   28.1    52   17.3   28.8   9.40  .0721    117    1    100.0    5 
22/07/16  13:35   19.8   19.8   19.7    83   16.8   4.0   SSW   0.33   6.0   SSW   19.8   20.5   20.5  1017.9  0.00  0.00   0.000   0.005   28.1    53   17.6   28.9   9.60  .0721    117    1    100.0    5 
22/07/16  13:40   19.7   19.8   19.7    83   16.7   4.0   SSW   0.33   6.0     S   19.7   20.4   20.4  1018.0  0.00  0.00   0.000   0.005   28.1    53   17.6   28.9   9.60  .0721    116    1    100.0    5 
22/07/16  13:45   19.6   19.7   19.6    83   16.6   5.0   SSW   0.42   6.0   SSW   19.6   20.3   20.3  1018.0  0.00  0.00   0.000   0.004   28.1    53   17.6   28.9   9.60  .0721    117    1    100.0    5 
22/07/16  13:50   19.6   19.6   19.6    83   16.6   4.0   SSW   0.33   6.0   SSW   19.6   20.3   20.3  1017.9  0.00  0.00   0.000   0.004   28.1    53   17.6   28.9   9.60  .0721    117    1    100.0    5 
22/07/16  13:55   19.6   19.6   19.5    84   16.8   5.0   SSW   0.42   6.0   SSW   19.6   20.3   20.3  1017.9  0.00  0.00   0.000   0.004   28.1    53   17.6   28.9   9.60  .0721    116    1    100.0    5 
22/07/16  14:00   19.6   19.6   19.6    84   16.8   5.0    SW   0.42   6.0    SW   19.6   20.3   20.3  1017.9  0.00  0.00   0.000   0.004   28.1    53   17.6   28.9   9.60  .0721    117    1    100.0    5 
22/07/16  14:05   19.4   19.6   19.4    84   16.6   4.0    SW   0.33   5.0    SW   19.4   20.1   20.1  1017.9  0.00  0.00   0.000   0.004   28.2    53   17.7   29.0   9.60  .0720    117    1    100.0    5 
22/07/16  14:10   19.4   19.4   19.3    85   16.9   4.0    SW   0.33   6.0    SW   19.4   20.2   20.2  1018.0  0.00  0.00   0.000   0.004   28.1    53   17.6   28.9   9.60  .0721    115    1    100.0    5 
22/07/16  14:15   19.4   19.4   19.4    86   17.0   5.0   WSW   0.42   5.0   WSW   19.4   20.2   20.2  1018.0  0.00  0.00   0.000   0.004   28.1    53   17.6   28.9   9.60  .0721    116    1    100.0    5 
22/07/16  14:20   19.5   19.5   19.4    86   17.1   4.0   WSW   0.33   6.0   WSW   19.5   20.3   20.3  1018.0  0.00  0.00   0.000   0.004   28.1    53   17.6   28.9   9.60  .0721    117    1    100.0    5 
22/07/16  14:25   19.6   19.6   19.5    86   17.1   4.0   WSW   0.33   5.0   WSW   19.6   20.3   20.3  1018.0  0.00  0.00   0.000   0.004   28.2    53   17.7   29.0   9.60  .0721    115    1    100.0    5 
22/07/16  14:30   19.6   19.6   19.5    87   17.3   5.0   WSW   0.42   7.0   WSW   19.6   20.3   20.3  1018.0  0.00  0.00   0.000   0.004   28.1    53   17.6   28.9   9.60  .0721    116    1    100.0    5 
22/07/16  14:35   19.6   19.6   19.6    87   17.3   5.0   WSW   0.42   7.0   WSW   19.6   20.3   20.3  1018.0  0.00  0.00   0.000   0.004   28.2    53   17.7   29.0   9.60  .0721    117    1    100.0    5 
22/07/16  14:40   19.4   19.6   19.4    86   17.0   5.0   WSW   0.42   6.0   WSW   19.4   20.2   20.2  1018.0  0.00  0.00   0.000   0.004   28.2    53   17.7   29.0   9.60  .0721    117    1    100.0    5 
22/07/16  14:45   19.5   19.5   19.4    86   17.1   5.0   WSW   0.42   7.0    SW   19.5   20.3   20.3  1018.0  0.00  0.00   0.000   0.004   28.2    53   17.7   29.0   9.60  .0721    116    1    100.0    5 
22/07/16  14:50   19.6   19.6   19.4    86   17.1   4.0   WSW   0.33   6.0   WSW   19.6   20.3   20.3  1018.0  0.00  0.00   0.000   0.004   28.2    53   17.7   29.1   9.59  .0720    117    1    100.0    5 
22/07/16  14:55   19.7   19.7   19.6    86   17.3   4.0   WSW   0.33   5.0   WSW   19.7   20.4   20.4  1018.1  0.00  0.00   0.000   0.005   28.2    53   17.7   29.1   9.59  .0720    117    1    100.0    5 
22/07/16  15:00   19.7   19.8   19.7    86   17.3   4.0   WSW   0.33   5.0   WSW   19.7   20.5   20.5  1018.0  0.00  0.00   0.000   0.005   28.3    53   17.8   29.2   9.59  .0720    117    1    100.0    5 
22/07/16  15:05   19.8   19.8   19.7    86   17.4   4.0    SW   0.33   5.0   WSW   19.8   20.6   20.6  1018.1  0.00  0.00   0.000   0.005   28.3    53   17.8   29.2   9.59  .0720    116    1    100.0    5 
22/07/16  15:10   20.1   20.1   19.8    86   17.6   4.0    SW   0.33   5.0    SW   20.1   20.9   20.9  1018.1  0.00  0.00   0.000   0.006   28.4    53   17.9   29.3   9.59  .0720    117    1    100.0    5 
22/07/16  15:15   20.5   20.5   20.1    86   18.1   4.0    SW   0.33   5.0    SW   20.5   21.5   21.5  1018.1  0.00  0.00   0.000   0.008   28.4    53   17.9   29.4   9.59  .0720    116    1    100.0    5 
22/07/16  15:20   20.7   20.7   20.5    84   17.9   4.0    SW   0.33   5.0    SW   20.7   21.6   21.6  1018.1  0.00  0.00   0.000   0.008   28.5    53   18.0   29.5   9.58  .0720    115    1    100.0    5 
22/07/16  15:25   20.7   20.7   20.7    83   17.7   4.0    SW   0.33   5.0    SW   20.7   21.6   21.6  1018.1  0.00  0.00   0.000   0.008   28.6    53   18.0   29.6   9.58  .0719    116    1    100.0    5 
22/07/16  15:30   20.8   20.8   20.7    84   18.0   4.0   SSW   0.33   5.0    SW   20.8   21.7   21.7  1018.1  0.00  0.00   0.000   0.008   28.6    53   18.1   29.7   9.58  .0719    117    1    100.0    5 
22/07/16  15:35   20.7   20.8   20.7    83   17.7   4.0   SSW   0.33   5.0   SSW   20.7   21.6   21.6  1018.2  0.00  0.00   0.000   0.008   28.7    53   18.1   29.8   9.58  .0719    115    1    100.0    5 
22/07/16  15:40   20.8   20.8   20.7    83   17.8   4.0    SW   0.33   5.0   SSW   20.8   21.6   21.6  1018.1  0.00  0.00   0.000   0.008   28.7    53   18.2   29.9   9.58  .0719    116    1    100.0    5 
22/07/16  15:45   20.7   20.8   20.7    82   17.5   4.0   SSW   0.33   5.0   SSW   20.7   21.6   21.6  1018.1  0.00  0.00   0.000   0.008   28.8    53   18.2   29.9   9.57  .0719    116    1    100.0    5 
22/07/16  15:50   20.7   20.7   20.7    83   17.7   4.0   SSW   0.33   5.0   SSW   20.7   21.6   21.6  1018.2  0.00  0.00   0.000   0.008   28.8    53   18.3   30.1   9.57  .0719    116    1    100.0    5 
22/07/16  15:55   20.7   20.7   20.6    83   17.7   4.0   SSW   0.33   6.0   SSW   20.7   21.6   21.6  1018.2  0.00  0.00   0.000   0.008   28.9    53   18.3   30.2   9.57  .0718    117    1    100.0    5 
22/07/16  16:00   20.6   20.6   20.6    83   17.6   5.0   SSW   0.42   6.0   SSW   20.6   21.5   21.5  1018.2  0.00  0.00   0.000   0.008   28.9    53   18.4   30.2   9.57  .0718    117    1    100.0    5 
22/07/16  16:05   20.8   20.8   20.6    83   17.8   5.0   SSW   0.42   6.0   SSW   20.8   21.6   21.6  1018.2  0.00  0.00   0.000   0.008   29.0    53   18.5   30.3   9.57  .0718    117    1    100.0    5 
22/07/16  16:10   20.9   21.0   20.8    83   17.9   5.0   SSW   0.42   6.0   SSW   20.9   21.7   21.7  1018.2  0.00  0.00   0.000   0.009   29.1    53   18.5   30.3   9.56  .0718    117    1    100.0    5 
22/07/16  16:15   21.1   21.1   20.9    83   18.1   4.0   SSW   0.33   6.0   SSW   21.1   21.8   21.8  1018.1  0.00  0.00   0.000   0.010   29.1    53   18.6   30.4   9.56  .0718    117    1    100.0    5 
22/07/16  16:20   21.4   21.4   21.1    82   18.2   4.0     S   0.33   6.0     S   21.4   22.2   22.2  1018.2  0.00  0.00   0.000   0.011   29.2    53   18.6   30.5   9.56  .0717    117    1    100.0    5 
22/07/16  16:25   21.4   21.4   21.4    81   18.0   4.0     S   0.33   5.0     S   21.4   22.2   22.2  1018.2  0.00  0.00   0.000   0.011   29.2    52   18.4   30.4   9.36  .0718    115    1    100.0    5 
22/07/16  16:30   21.3   21.4   21.3    81   17.9   4.0   SSW   0.33   5.0   SSW   21.3   21.9   21.9  1018.2  0.00  0.00   0.000   0.010   29.3    52   18.5   30.6   9.35  .0717    116    1    100.0    5 
22/07/16  16:35   21.3   21.3   21.3    82   18.1   4.0   SSW   0.33   5.0   SSW   21.3   22.1   22.1  1018.2  0.00  0.00   0.000   0.010   29.3    52   18.5   30.6   9.35  .0717    115    1    100.0    5 
22/07/16  16:40   21.4   21.4   21.3    82   18.2   4.0   SSW   0.33   5.0   SSW   21.4   22.2   22.2  1018.2  0.00  0.00   0.000   0.011   29.4    52   18.6   30.7   9.35  .0717    117    1    100.0    5 
22/07/16  16:45   21.6   21.6   21.4    82   18.4   4.0     S   0.33   6.0     S   21.6   22.4   22.4  1018.2  0.00  0.00   0.000   0.011   29.4    52   18.6   30.7   9.35  .0717    116    1    100.0    5 
22/07/16  16:50   21.5   21.6   21.5    82   18.3   5.0     S   0.42   6.0     S   21.5   22.3   22.3  1018.2  0.00  0.00   0.000   0.011   29.6    52   18.7   30.9   9.35  .0716    117    1    100.0    5 
22/07/16  16:55   21.4   21.5   21.4    83   18.4   5.0     S   0.42   6.0     S   21.4   22.3   22.3  1018.1  0.00  0.00   0.000   0.011   29.6    52   18.7   30.9   9.35  .0716    117    1    100.0    5 
22/07/16  17:00   21.3   21.4   21.3    82   18.1   5.0   SSW   0.42   6.0     S   21.3   22.0   22.0  1018.1  0.00  0.00   0.000   0.010   29.7    52   18.8   31.1   9.35  .0716    117    1    100.0    5 
22/07/16  17:05   20.8   21.3   20.8    82   17.6   6.0   SSW   0.50   8.0   SSW   20.8   21.6   21.6  1018.1  0.00  0.00   0.000   0.009   29.7    52   18.8   31.1   9.35  .0716    117    1    100.0    5 
22/07/16  17:10   20.6   20.8   20.6    82   17.4   6.0   SSW   0.50   8.0   SSW   20.6   21.5   21.5  1018.0  0.00  0.00   0.000   0.008   29.7    52   18.8   31.1   9.35  .0716    116    1    100.0    5 
22/07/16  17:15   20.4   20.6   20.4    82   17.3   7.0   SSW   0.58   9.0   SSW   20.4   21.3   21.3  1017.9  0.00  0.00   0.000   0.007   29.8    52   18.9   31.2   9.35  .0715    117    1    100.0    5 
22/07/16  17:20   20.4   20.4   20.4    82   17.2   7.0   SSW   0.58   8.0   SSW   20.4   21.2   21.2  1017.9  0.00  0.00   0.000   0.007   29.8    52   18.9   31.3   9.35  .0715    117    1    100.0    5 
22/07/16  17:25   20.6   20.6   20.4    82   17.4   6.0   SSW   0.50   7.0   SSW   20.6   21.4   21.4  1017.9  0.00  0.00   0.000   0.008   29.9    52   19.0   31.4   9.35  .0715    117    1    100.0    5 
22/07/16  17:30   20.5   20.6   20.5    82   17.3   7.0   SSW   0.58   9.0   SSW   20.5   21.4   21.4  1017.9  0.00  0.00   0.000   0.008   29.9    52   19.0   31.4   9.35  .0715    116    1    100.0    5 
22/07/16  17:35   20.4   20.6   20.4    82   17.3   6.0    SW   0.50   9.0   SSW   20.4   21.3   21.3  1017.9  0.00  0.00   0.000   0.007   30.0    52   19.1   31.6   9.35  .0715    116    1    100.0    5 
22/07/16  17:40   20.1   20.4   20.1    83   17.1   6.0    SW   0.50   8.0    SW   20.1   20.8   20.8  1017.9  0.00  0.00   0.000   0.006   30.1    52   19.1   31.7   9.35  .0715    118    1    100.0    5 
22/07/16  17:45   20.1   20.1   20.1    83   17.1   5.0    SW   0.42   7.0    SW   20.1   20.9   20.9  1017.9  0.00  0.00   0.000   0.006   30.1    52   19.1   31.7   9.35  .0715    116    1    100.0    5 
22/07/16  17:50   20.1   20.1   20.1    83   17.1   5.0    SW   0.42   7.0    SW   20.1   20.9   20.9  1017.7  0.00  0.00   0.000   0.006   30.1    52   19.2   31.8   9.35  .0714    117    1    100.0    5 
22/07/16  17:55   20.2   20.3   20.1    83   17.2   5.0    SW   0.42   7.0    SW   20.2   21.1   21.1  1017.7  0.00  0.00   0.000   0.007   30.2    52   19.2   31.9   9.35  .0714    116    1    100.0    5 
22/07/16  18:00   20.4   20.4   20.3    83   17.5   5.0    SW   0.42   6.0    SW   20.4   21.3   21.3  1017.7  0.00  0.00   0.000   0.007   30.2    52   19.2   31.9   9.35  .0714    117    1    100.0    5 
22/07/16  18:05   20.4   20.4   20.3    83   17.4   5.0   SSW   0.42   6.0   SSW   20.4   21.3   21.3  1017.7  0.00  0.00   0.000   0.007   30.2    52   19.3   32.0   9.35  .0714    116    1    100.0    5 
22/07/16  18:10   20.4   20.4   20.4    83   17.5   5.0   SSW   0.42   6.0   SSW   20.4   21.3   21.3  1017.7  0.00  0.00   0.000   0.007   30.3    52   19.3   32.1   9.35  .0714    117    1    100.0    5 
22/07/16  18:15   20.5   20.5   20.4    82   17.3   4.0   SSW   0.33   6.0   SSW   20.5   21.4   21.4  1017.6  0.00  0.00   0.000   0.008   30.3    52   19.3   32.1   9.35  .0714    116    1    100.0    5 
22/07/16  18:20   20.3   20.4   20.3    82   17.2   4.0   SSW   0.33   5.0   SSW   20.3   21.2   21.2  1017.6  0.00  0.00   0.000   0.007   30.3    52   19.4   32.2   9.35  .0714    117    1    100.0    5 
22/07/16  18:25   20.3   20.4   20.3    83   17.3   4.0   SSW   0.33   6.0   SSW   20.3   21.2   21.2  1017.6  0.00  0.00   0.000   0.007   30.3    52   19.4   32.2   9.35  .0714    116    1    100.0    5 
22/07/16  18:30   20.1   20.3   20.1    82   16.9   4.0    SW   0.33   6.0    SW   20.1   20.9   20.9  1017.6  0.00  0.00   0.000   0.006   30.4    52   19.5   32.4   9.35  .0713    117    1    100.0    5 
22/07/16  18:35   20.2   20.2   20.1    83   17.2   4.0    SW   0.33   6.0    SW   20.2   21.0   21.0  1017.7  0.00  0.00   0.000   0.006   30.4    52   19.5   32.4   9.35  .0713    115    1    100.0    5 
22/07/16  18:40   20.3   20.3   20.2    83   17.3   4.0    SW   0.33   5.0    SW   20.3   21.2   21.2  1017.7  0.00  0.00   0.000   0.007   30.4    52   19.5   32.4   9.35  .0713    117    1    100.0    5 
22/07/16  18:45   20.2   20.3   20.2    83   17.2   4.0    SW   0.33   5.0    SW   20.2   21.1   21.1  1017.7  0.00  0.00   0.000   0.007   30.5    52   19.5   32.6   9.35  .0713    117    1    100.0    5 
22/07/16  18:50   20.2   20.2   20.2    83   17.2   4.0    SW   0.33   5.0    SW   20.2   21.1   21.1  1017.7  0.00  0.00   0.000   0.007   30.5    52   19.5   32.6   9.35  .0713    117    1    100.0    5 
22/07/16  18:55   20.2   20.2   20.2    83   17.2   5.0    SW   0.42   6.0   SSW   20.2   21.0   21.0  1017.6  0.00  0.00   0.000   0.006   30.6    52   19.6   32.7   9.35  .0713    117    1    100.0    5 
22/07/16  19:00   20.2   20.2   20.2    83   17.2   5.0    SW   0.42   6.0    SW   20.2   21.1   21.1  1017.6  0.00  0.00   0.000   0.007   30.6    52   19.6   32.7   9.35  .0713    117    1    100.0    5 
22/07/16  19:05   20.2   20.2   20.2    83   17.2   5.0    SW   0.42   7.0    SW   20.2   21.0   21.0  1017.6  0.00  0.00   0.000   0.006   30.6    52   19.6   32.7   9.35  .0713    117    1    100.0    5 
22/07/16  19:10   20.2   20.2   20.2    84   17.4   4.0    SW   0.33   6.0    SW   20.2   21.1   21.1  1017.6  0.00  0.00   0.000   0.007   30.6    52   19.6   32.7   9.35  .0713    117    1    100.0    5 
22/07/16  19:15   20.1   20.2   20.1    83   17.1   5.0    SW   0.42   6.0    SW   20.1   20.9   20.9  1017.7  0.00  0.00   0.000   0.006   30.7    52   19.7   32.8   9.35  .0713    117    1    100.0    5 
22/07/16  19:20   20.1   20.1   20.1    83   17.1   5.0    SW   0.42   7.0    SW   20.1   20.8   20.8  1017.7  0.00  0.00   0.000   0.006   30.7    52   19.7   32.8   9.35  .0713    117    1    100.0    5 
22/07/16  19:25   20.1   20.1   20.1    82   16.9   5.0    SW   0.42   7.0    SW   20.1   20.9   20.9  1017.9  0.00  0.00   0.000   0.006   30.7    51   19.4   32.7   9.20  .0713    117    1    100.0    5 
22/07/16  19:30   20.2   20.2   20.1    83   17.2   5.0   SSW   0.42   7.0   SSW   20.2   21.0   21.0  1018.0  0.00  0.00   0.000   0.006   30.7    51   19.4   32.7   9.20  .0713    117    1    100.0    5 
22/07/16  19:35   20.2   20.2   20.1    84   17.4   5.0   SSW   0.42   6.0   SSW   20.2   21.0   21.0  1017.9  0.00  0.00   0.000   0.006   30.7    51   19.4   32.7   9.20  .0713    117    1    100.0    5 
22/07/16  19:40   20.3   20.3   20.2    84   17.5   5.0   SSW   0.42   6.0   SSW   20.3   21.2   21.2  1018.0  0.00  0.00   0.000   0.007   30.7    51   19.4   32.7   9.20  .0713    116    1    100.0    5 
22/07/16  19:45   20.2   20.3   20.2    83   17.2   5.0    SW   0.42   6.0    SW   20.2   21.1   21.1  1018.0  0.00  0.00   0.000   0.007   30.8    51   19.5   32.8   9.20  .0713    118    1    100.0    5 
22/07/16  19:50   20.3   20.3   20.2    83   17.3   5.0    SW   0.42   8.0    SW   20.3   21.2   21.2  1018.0  0.00  0.00   0.000   0.007   30.8    51   19.5   32.8   9.20  .0713    117    1    100.0    5 
22/07/16  19:55   20.3   20.3   20.2    83   17.3   5.0    SW   0.42   7.0    SW   20.3   21.2   21.2  1018.0  0.00  0.00   0.000   0.007   30.8    51   19.5   32.8   9.20  .0713    117    1    100.0    5 
22/07/16  20:00   20.2   20.3   20.2    83   17.2   5.0    SW   0.42   7.0    SW   20.2   21.1   21.1  1018.1  0.00  0.00   0.000   0.007   30.8    51   19.5   32.8   9.20  .0713    116    1    100.0    5 
22/07/16  20:05   20.2   20.3   20.2    84   17.4   6.0    SW   0.50   8.0    SW   20.2   21.1   21.1  1018.1  0.00  0.00   0.000   0.007   30.8    51   19.5   32.8   9.20  .0713    117    1    100.0    5 
22/07/16  20:10   20.2   20.3   20.2    84   17.4   7.0    SW   0.58   9.0    SW   20.2   21.1   21.1  1018.2  0.00  0.00   0.000   0.007   30.8    51   19.5   32.8   9.20  .0713    117    1    100.0    5 
22/07/16  20:15   20.3   20.3   20.2    85   17.7   6.0    SW   0.50   8.0   WSW   20.3   21.2   21.2  1018.2  0.00  0.00   0.000   0.007   30.8    51   19.5   32.8   9.20  .0713    116    1    100.0    5 
22/07/16  20:20   20.3   20.3   20.3    85   17.7   6.0    SW   0.50   7.0    SW   20.3   21.2   21.2  1018.2  0.00  0.00   0.000   0.007   30.9    51   19.6   32.9   9.20  .0712    117    1    100.0    5 
22/07/16  20:25   20.2   20.3   20.2    85   17.6   6.0    SW   0.50   8.0    SW   20.2   21.1   21.1  1018.3  0.00  0.00   0.000   0.007   30.8    51   19.5   32.8   9.20  .0713    117    1    100.0    5 
22/07/16  20:30   20.2   20.2   20.2    85   17.6   7.0    SW   0.58   8.0    SW   20.2   21.1   21.1  1018.4  0.00  0.00   0.000   0.006   30.9    51   19.6   32.9   9.20  .0713    116    1    100.0    5 
22/07/16  20:35   20.1   20.2   20.1    85   17.5   7.0    SW   0.58   9.0    SW   20.1   21.0   21.0  1018.4  0.00  0.00   0.000   0.006   30.9    51   19.6   32.9   9.20  .0713    117    1    100.0    5 
22/07/16  20:40   20.1   20.1   20.1    85   17.5   7.0   WSW   0.58   9.0   WSW   20.1   20.9   20.9  1018.4  0.00  0.00   0.000   0.006   30.9    51   19.6   32.9   9.20  .0713    117    1    100.0    5 
22/07/16  20:45   20.1   20.1   20.1    85   17.5   7.0   WSW   0.58   9.0    SW   20.1   20.9   20.9  1018.5  0.00  0.00   0.000   0.006   30.8    51   19.5   32.8   9.20  .0713    117    1    100.0    5 
22/07/16  20:50   20.0   20.1   20.0    85   17.4   7.0   WSW   0.58   9.0   WSW   20.0   20.8   20.8  1018.5  0.00  0.00   0.000   0.006   30.9    51   19.6   32.9   9.20  .0713    118    1    100.0    5 
22/07/16  20:55   20.0   20.0   20.0    85   17.4   7.0   WSW   0.58   8.0   WSW   20.0   20.8   20.8  1018.6  0.00  0.00   0.000   0.006   30.9    51   19.6   32.9   9.20  .0713    117    1    100.0    5 
22/07/16  21:00   19.9   20.0   19.9    86   17.5   6.0   WSW   0.50   8.0   WSW   19.9   20.8   20.8  1018.6  0.00  0.00   0.000   0.006   30.8    51   19.5   32.8   9.20  .0713    116    1    100.0    5 
22/07/16  21:05   19.9   19.9   19.9    86   17.5   5.0   WSW   0.42   8.0   WSW   19.9   20.7   20.7  1018.6  0.00  0.00   0.000   0.005   30.8    51   19.5   32.8   9.20  .0713    116    1    100.0    5 
22/07/16  21:10   19.9   19.9   19.9    86   17.5   5.0   WSW   0.42   7.0     W   19.9   20.7   20.7  1018.6  0.00  0.00   0.000   0.005   30.8    51   19.5   32.8   9.20  .0713    116    1    100.0    5 
22/07/16  21:15   19.8   19.8   19.8    86   17.4   5.0   WSW   0.42   7.0   WSW   19.8   20.6   20.6  1018.6  0.00  0.00   0.000   0.005   30.9    51   19.6   32.9   9.20  .0713    116    1    100.0    5 
22/07/16  21:20   19.8   19.8   19.8    86   17.4   5.0   WSW   0.42   7.0   WSW   19.8   20.7   20.7  1018.8  0.00  0.00   0.000   0.005   30.8    51   19.5   32.8   9.20  .0713    117    1    100.0    5 
22/07/16  21:25   19.8   19.8   19.8    87   17.6   4.0   WSW   0.33   6.0   WSW   19.8   20.6   20.6  1018.9  0.00  0.00   0.000   0.005   30.8    51   19.5   32.8   9.20  .0713    116    1    100.0    5 
22/07/16  21:30   19.7   19.8   19.7    87   17.5   4.0   WSW   0.33   6.0   WSW   19.7   20.6   20.6  1018.9  0.00  0.00   0.000   0.005   30.8    51   19.5   32.8   9.20  .0713    116    1    100.0    5 
113096